UAE34Y OMDB-EGCC
Flight info
| Callsign | UAE34Y |
|---|---|
| Flight time | 8h 50m |
| Altitude | 36000 |
| Route | ANVIX R401 GIDIS G783 RIGIL M628 PEKEM DCT MEDPO DCT ITRUX Y511 PMA Z712 WEJ L677 EMOVA/N0494F380 L677 CVO L617 TANSA UL613 KOR DCT DIMIS DCT VAKSU DCT SPL DCT ZDA DCT PEVAL DCT LAMPO DCT GUNGO DCT SAFFA DCT ELMUR DCT RIPUS/N0488F400 L613 HOC DCT LUL DCT RLP DCT ROTSI DCT KOTUN DCT AMAXA DCT VESAN DCT RATUK DCT SOVAT L613 SANDY UN57 WELIN T420 ELVOS |
| Aircraft | A388/J-SADE2E3FGHIJ3J4J5M1RWXY/LB1D1 |
Departure
| Time | 2026-05-04 20:46 |
|---|---|
| Airport | Dubai International Airport (OMDB) |
Arrival
| Time | 2026-05-05 05:36 |
|---|---|
| Airport | Manchester Airport (EGCC) |
| Time | Latitude | Longitude | Altitude | Speed | Heading |
|---|---|---|---|---|---|
| 2026-05-04 20:30 | 25.24187 | 55.37247 | 32 ft | 0 kts | 31° |
| 2026-05-04 20:37 | 25.24176 | 55.37239 | 32 ft | 4 kts | 31° |
| 2026-05-04 20:37 | 25.24152 | 55.37225 | 32 ft | 4 kts | 25° |
| 2026-05-04 20:37 | 25.24133 | 55.37212 | 30 ft | 4 kts | 49° |
| 2026-05-04 20:38 | 25.24122 | 55.37193 | 32 ft | 4 kts | 75° |
| 2026-05-04 20:38 | 25.24122 | 55.37174 | 30 ft | 4 kts | 116° |
| 2026-05-04 20:38 | 25.24137 | 55.37150 | 32 ft | 4 kts | 124° |
| 2026-05-04 20:38 | 25.24143 | 55.37140 | 29 ft | 1 kts | 122° |
| 2026-05-04 20:40 | 25.24140 | 55.37146 | 27 ft | 3 kts | 121° |
| 2026-05-04 20:40 | 25.24123 | 55.37176 | 30 ft | 6 kts | 121° |
| 2026-05-04 20:40 | 25.24095 | 55.37227 | 29 ft | 9 kts | 121° |
| 2026-05-04 20:41 | 25.24058 | 55.37295 | 29 ft | 11 kts | 122° |
| 2026-05-04 20:41 | 25.24012 | 55.37374 | 31 ft | 13 kts | 123° |
| 2026-05-04 20:41 | 25.23967 | 55.37465 | 28 ft | 14 kts | 107° |
| 2026-05-04 20:41 | 25.23981 | 55.37566 | 32 ft | 14 kts | 51° |
| 2026-05-04 20:42 | 25.24059 | 55.37639 | 28 ft | 16 kts | 30° |
| 2026-05-04 20:42 | 25.24160 | 55.37703 | 29 ft | 18 kts | 31° |
| 2026-05-04 20:42 | 25.24267 | 55.37778 | 26 ft | 19 kts | 32° |
| 2026-05-04 20:42 | 25.24379 | 55.37857 | 27 ft | 19 kts | 34° |
| 2026-05-04 20:43 | 25.24487 | 55.37944 | 30 ft | 19 kts | 36° |
| 2026-05-04 20:43 | 25.24605 | 55.38027 | 27 ft | 21 kts | 33° |
| 2026-05-04 20:43 | 25.24702 | 55.38095 | 30 ft | 12 kts | 31° |
| 2026-05-04 20:43 | 25.24755 | 55.38112 | 31 ft | 4 kts | 315° |
| 2026-05-04 20:44 | 25.24769 | 55.38093 | 31 ft | 0 kts | 302° |
| 2026-05-04 20:44 | 25.24793 | 55.38048 | 30 ft | 30 kts | 301° |
| 2026-05-04 20:44 | 25.25031 | 55.37616 | 31 ft | 99 kts | 301° |
| 2026-05-04 20:45 | 25.25484 | 55.36804 | 29 ft | 149 kts | 301° |
| 2026-05-04 20:45 | 25.26087 | 55.35728 | 69 ft | 174 kts | 302° |
| 2026-05-04 20:45 | 25.26714 | 55.34623 | 502 ft | 171 kts | 301° |
| 2026-05-04 20:45 | 25.27361 | 55.33459 | 659 ft | 185 kts | 300° |
| 2026-05-04 20:46 | 25.28036 | 55.32229 | 940 ft | 187 kts | 301° |
| 2026-05-04 20:46 | 25.28706 | 55.31010 | 1288 ft | 185 kts | 302° |
| 2026-05-04 20:46 | 25.29289 | 55.29743 | 1549 ft | 190 kts | 282° |
| 2026-05-04 20:46 | 25.29141 | 55.28311 | 1892 ft | 192 kts | 246° |
| 2026-05-04 20:47 | 25.28537 | 55.26973 | 2117 ft | 199 kts | 245° |
| 2026-05-04 20:47 | 25.27919 | 55.25582 | 2313 ft | 204 kts | 246° |
| 2026-05-04 20:47 | 25.27309 | 55.24175 | 2597 ft | 204 kts | 246° |
| 2026-05-04 20:47 | 25.26701 | 55.22754 | 2817 ft | 205 kts | 246° |
| 2026-05-04 20:48 | 25.26093 | 55.21324 | 3093 ft | 205 kts | 246° |
| 2026-05-04 20:48 | 25.25476 | 55.19869 | 3199 ft | 213 kts | 246° |
| 2026-05-04 20:48 | 25.24823 | 55.18352 | 3244 ft | 222 kts | 242° |
| 2026-05-04 20:48 | 25.23704 | 55.17090 | 3362 ft | 243 kts | 208° |
| 2026-05-04 20:49 | 25.22029 | 55.16595 | 3568 ft | 263 kts | 180° |
| 2026-05-04 20:49 | 25.20205 | 55.17059 | 3769 ft | 281 kts | 151° |
| 2026-05-04 20:49 | 25.18721 | 55.18457 | 4279 ft | 282 kts | 123° |
| 2026-05-04 20:49 | 25.17793 | 55.20349 | 4872 ft | 282 kts | 112° |
| 2026-05-04 20:50 | 25.17011 | 55.22318 | 5394 ft | 285 kts | 112° |
| 2026-05-04 20:50 | 25.16151 | 55.24308 | 5960 ft | 289 kts | 114° |
| 2026-05-04 20:50 | 25.15194 | 55.26277 | 6498 ft | 292 kts | 116° |
| 2026-05-04 20:50 | 25.14182 | 55.28209 | 7175 ft | 289 kts | 118° |
| 2026-05-04 20:51 | 25.13145 | 55.30127 | 7710 ft | 293 kts | 118° |
| 2026-05-04 20:51 | 25.12088 | 55.32062 | 8240 ft | 295 kts | 119° |
| 2026-05-04 20:51 | 25.11023 | 55.34008 | 8820 ft | 297 kts | 119° |
| 2026-05-04 20:51 | 25.09951 | 55.35966 | 9364 ft | 299 kts | 119° |
| 2026-05-04 20:52 | 25.08871 | 55.37941 | 9914 ft | 302 kts | 119° |
| 2026-05-04 20:52 | 25.07770 | 55.39957 | 10074 ft | 318 kts | 119° |
| 2026-05-04 20:52 | 25.06596 | 55.42108 | 10218 ft | 334 kts | 120° |
| 2026-05-04 20:52 | 25.05371 | 55.44350 | 10349 ft | 349 kts | 120° |
| 2026-05-04 20:53 | 25.04100 | 55.46672 | 10689 ft | 356 kts | 120° |
| 2026-05-04 20:53 | 25.02816 | 55.49016 | 11177 ft | 359 kts | 120° |
| 2026-05-04 20:53 | 25.01515 | 55.51389 | 11572 ft | 364 kts | 120° |
| 2026-05-04 20:53 | 25.00200 | 55.53789 | 12129 ft | 365 kts | 120° |
| 2026-05-04 20:54 | 24.98881 | 55.56193 | 12612 ft | 369 kts | 120° |
| 2026-05-04 20:54 | 24.97549 | 55.58622 | 13103 ft | 372 kts | 120° |
| 2026-05-04 20:54 | 24.96205 | 55.61072 | 13611 ft | 375 kts | 121° |
| 2026-05-04 20:54 | 24.94849 | 55.63541 | 14034 ft | 378 kts | 121° |
| 2026-05-04 20:55 | 24.93482 | 55.66029 | 14492 ft | 381 kts | 121° |
| 2026-05-04 20:55 | 24.92125 | 55.68498 | 14936 ft | 383 kts | 121° |
| 2026-05-04 20:55 | 24.90734 | 55.71027 | 15382 ft | 386 kts | 121° |
| 2026-05-04 20:55 | 24.89337 | 55.73567 | 15832 ft | 389 kts | 121° |
| 2026-05-04 20:56 | 24.87927 | 55.76128 | 16265 ft | 392 kts | 121° |
| 2026-05-04 20:56 | 24.86509 | 55.78701 | 16710 ft | 395 kts | 121° |
| 2026-05-04 20:56 | 24.85072 | 55.81309 | 17108 ft | 399 kts | 121° |
| 2026-05-04 20:56 | 24.83630 | 55.83923 | 17615 ft | 401 kts | 121° |
| 2026-05-04 20:57 | 24.82174 | 55.86564 | 18023 ft | 404 kts | 121° |
| 2026-05-04 20:57 | 24.80698 | 55.89208 | 18392 ft | 406 kts | 125° |
| 2026-05-04 20:57 | 24.78807 | 55.91525 | 18773 ft | 407 kts | 142° |
| 2026-05-04 20:57 | 24.76411 | 55.93166 | 19147 ft | 407 kts | 159° |
| 2026-05-04 20:58 | 24.73704 | 55.94010 | 19533 ft | 405 kts | 175° |
| 2026-05-04 20:58 | 24.70930 | 55.94077 | 19909 ft | 404 kts | 185° |
| 2026-05-04 20:58 | 24.68125 | 55.93849 | 20264 ft | 405 kts | 187° |
| 2026-05-04 20:58 | 24.65333 | 55.93619 | 20659 ft | 407 kts | 186° |
| 2026-05-04 20:59 | 24.62510 | 55.93351 | 21019 ft | 407 kts | 193° |
| 2026-05-04 20:59 | 24.59801 | 55.92446 | 21362 ft | 405 kts | 207° |
| 2026-05-04 20:59 | 24.57401 | 55.90851 | 21745 ft | 403 kts | 221° |
| 2026-05-04 20:59 | 24.55305 | 55.88815 | 22121 ft | 404 kts | 224° |
| 2026-05-04 21:00 | 24.53197 | 55.86766 | 22490 ft | 405 kts | 223° |
| 2026-05-04 21:00 | 24.51062 | 55.84712 | 22861 ft | 407 kts | 223° |
| 2026-05-04 21:00 | 24.48925 | 55.82662 | 23228 ft | 409 kts | 223° |
| 2026-05-04 21:00 | 24.46807 | 55.80629 | 23556 ft | 411 kts | 223° |
| 2026-05-04 21:01 | 24.44650 | 55.78557 | 23869 ft | 412 kts | 223° |
| 2026-05-04 21:01 | 24.42488 | 55.76480 | 24130 ft | 414 kts | 223° |
| 2026-05-04 21:01 | 24.40321 | 55.74399 | 24437 ft | 415 kts | 223° |
| 2026-05-04 21:01 | 24.38137 | 55.72302 | 24748 ft | 417 kts | 223° |
| 2026-05-04 21:02 | 24.35951 | 55.70204 | 25052 ft | 418 kts | 223° |
| 2026-05-04 21:02 | 24.33751 | 55.68094 | 25361 ft | 420 kts | 224° |
| 2026-05-04 21:02 | 24.31547 | 55.65980 | 25660 ft | 421 kts | 224° |
| 2026-05-04 21:02 | 24.29336 | 55.63862 | 25978 ft | 423 kts | 223° |
| 2026-05-04 21:03 | 24.26968 | 55.61919 | 26258 ft | 428 kts | 214° |
| 2026-05-04 21:03 | 24.24324 | 55.60374 | 26587 ft | 434 kts | 206° |
| 2026-05-04 21:03 | 24.21467 | 55.59258 | 26898 ft | 439 kts | 198° |
| 2026-05-04 21:03 | 24.18536 | 55.58413 | 27214 ft | 441 kts | 198° |
| 2026-05-04 21:04 | 24.15567 | 55.57533 | 27550 ft | 443 kts | 199° |
| 2026-05-04 21:04 | 24.12585 | 55.56638 | 27894 ft | 445 kts | 199° |
| 2026-05-04 21:04 | 24.09583 | 55.55736 | 28243 ft | 448 kts | 199° |
| 2026-05-04 21:04 | 24.06564 | 55.54831 | 28598 ft | 450 kts | 199° |
| 2026-05-04 21:05 | 24.03543 | 55.53927 | 28952 ft | 452 kts | 199° |
| 2026-05-04 21:05 | 24.00488 | 55.53014 | 29311 ft | 455 kts | 199° |
| 2026-05-04 21:05 | 23.97429 | 55.52103 | 29679 ft | 457 kts | 199° |
| 2026-05-04 21:05 | 23.95391 | 55.51497 | 29926 ft | 459 kts | 199° |
| 2026-05-04 21:06 | 23.92303 | 55.50581 | 30239 ft | 461 kts | 199° |
| 2026-05-04 21:06 | 23.89200 | 55.49661 | 30563 ft | 463 kts | 199° |
| 2026-05-04 21:06 | 23.86084 | 55.48737 | 30899 ft | 465 kts | 199° |
| 2026-05-04 21:06 | 23.82953 | 55.47808 | 31230 ft | 467 kts | 199° |
| 2026-05-04 21:07 | 23.79806 | 55.46873 | 31538 ft | 470 kts | 199° |
| 2026-05-04 21:07 | 23.76645 | 55.45934 | 31858 ft | 472 kts | 199° |
| 2026-05-04 21:07 | 23.73468 | 55.44991 | 32174 ft | 474 kts | 199° |
| 2026-05-04 21:07 | 23.70274 | 55.44043 | 32474 ft | 477 kts | 199° |
| 2026-05-04 21:08 | 23.67059 | 55.43090 | 32797 ft | 479 kts | 199° |
| 2026-05-04 21:08 | 23.63836 | 55.42135 | 33105 ft | 481 kts | 199° |
| 2026-05-04 21:08 | 23.60596 | 55.41175 | 33417 ft | 483 kts | 199° |
| 2026-05-04 21:08 | 23.57344 | 55.40213 | 33726 ft | 486 kts | 199° |
| 2026-05-04 21:09 | 23.54080 | 55.39247 | 34004 ft | 488 kts | 199° |
| 2026-05-04 21:09 | 23.50799 | 55.38277 | 34308 ft | 489 kts | 199° |
| 2026-05-04 21:09 | 23.47510 | 55.37305 | 34675 ft | 488 kts | 199° |
| 2026-05-04 21:09 | 23.44280 | 55.36351 | 35088 ft | 486 kts | 199° |
| 2026-05-04 21:10 | 23.41012 | 55.35386 | 35500 ft | 485 kts | 199° |
| 2026-05-04 21:10 | 23.37756 | 55.34424 | 35774 ft | 487 kts | 199° |
| 2026-05-04 21:10 | 23.31208 | 55.32490 | 35791 ft | 487 kts | 199° |
| 2026-05-04 21:11 | 23.24659 | 55.30559 | 35790 ft | 488 kts | 199° |
| 2026-05-04 21:11 | 23.18110 | 55.28630 | 35790 ft | 488 kts | 199° |
| 2026-05-04 21:12 | 23.11659 | 55.26405 | 35781 ft | 483 kts | 208° |
| 2026-05-04 21:12 | 23.06186 | 55.22326 | 35775 ft | 475 kts | 226° |
| 2026-05-04 21:13 | 23.02251 | 55.16660 | 35768 ft | 470 kts | 244° |
| 2026-05-04 21:13 | 23.00155 | 55.10035 | 35762 ft | 467 kts | 258° |
| 2026-05-04 21:14 | 22.98818 | 55.03124 | 35757 ft | 468 kts | 258° |
| 2026-05-04 21:14 | 22.97444 | 54.96205 | 35763 ft | 468 kts | 258° |
| 2026-05-04 21:15 | 22.96072 | 54.89290 | 35768 ft | 469 kts | 258° |
| 2026-05-04 21:15 | 22.94700 | 54.82379 | 35774 ft | 469 kts | 258° |
| 2026-05-04 21:16 | 22.93321 | 54.75446 | 35773 ft | 470 kts | 258° |
| 2026-05-04 21:16 | 22.91939 | 54.68514 | 35779 ft | 470 kts | 258° |
| 2026-05-04 21:17 | 22.90561 | 54.61619 | 35780 ft | 471 kts | 257° |
| 2026-05-04 21:17 | 22.89171 | 54.54679 | 35785 ft | 471 kts | 257° |
| 2026-05-04 21:18 | 22.87776 | 54.47732 | 35782 ft | 471 kts | 257° |
| 2026-05-04 21:18 | 22.86379 | 54.40793 | 35784 ft | 471 kts | 257° |
| 2026-05-04 21:19 | 22.84977 | 54.33846 | 35784 ft | 471 kts | 257° |
| 2026-05-04 21:19 | 22.83576 | 54.26918 | 35778 ft | 471 kts | 257° |
| 2026-05-04 21:20 | 22.82181 | 54.20034 | 35784 ft | 471 kts | 257° |
| 2026-05-04 21:20 | 22.80764 | 54.13063 | 35784 ft | 470 kts | 257° |
| 2026-05-04 21:21 | 22.79355 | 54.06147 | 35779 ft | 470 kts | 257° |
| 2026-05-04 21:21 | 22.77953 | 53.99274 | 35779 ft | 470 kts | 257° |
| 2026-05-04 21:22 | 22.76590 | 53.92353 | 35776 ft | 470 kts | 258° |
| 2026-05-04 21:22 | 22.75252 | 53.85427 | 35773 ft | 470 kts | 258° |
| 2026-05-04 21:23 | 22.73902 | 53.78504 | 35778 ft | 470 kts | 257° |
| 2026-05-04 21:23 | 22.72544 | 53.71575 | 35775 ft | 470 kts | 257° |
| 2026-05-04 21:24 | 22.71183 | 53.64651 | 35780 ft | 470 kts | 257° |
| 2026-05-04 21:24 | 22.69817 | 53.57718 | 35782 ft | 470 kts | 257° |
| 2026-05-04 21:25 | 22.68450 | 53.50792 | 35787 ft | 470 kts | 257° |
| 2026-05-04 21:25 | 22.67078 | 53.43864 | 35822 ft | 469 kts | 257° |
| 2026-05-04 21:26 | 22.65709 | 53.36961 | 35800 ft | 468 kts | 257° |
| 2026-05-04 21:26 | 22.64347 | 53.30116 | 35794 ft | 467 kts | 257° |
| 2026-05-04 21:27 | 22.62977 | 53.23242 | 35785 ft | 466 kts | 257° |
| 2026-05-04 21:27 | 22.61609 | 53.16391 | 35778 ft | 465 kts | 257° |
| 2026-05-04 21:28 | 22.60238 | 53.09549 | 35773 ft | 465 kts | 257° |
| 2026-05-04 21:28 | 22.58866 | 53.02712 | 35774 ft | 465 kts | 257° |
| 2026-05-04 21:29 | 22.57489 | 52.95867 | 35778 ft | 465 kts | 257° |
| 2026-05-04 21:29 | 22.56147 | 52.89212 | 35780 ft | 465 kts | 257° |
| 2026-05-04 21:30 | 22.54765 | 52.82375 | 35785 ft | 465 kts | 257° |
| 2026-05-04 21:30 | 22.53378 | 52.75528 | 35783 ft | 466 kts | 257° |
| 2026-05-04 21:31 | 22.51300 | 52.65300 | 35788 ft | 466 kts | 257° |
| 2026-05-04 21:32 | 22.49905 | 52.58454 | 35792 ft | 466 kts | 257° |
| 2026-05-04 21:32 | 22.48508 | 52.51608 | 35786 ft | 466 kts | 257° |
| 2026-05-04 21:33 | 22.47106 | 52.44759 | 35788 ft | 466 kts | 257° |
| 2026-05-04 21:33 | 22.45701 | 52.37913 | 35791 ft | 466 kts | 257° |
| 2026-05-04 21:34 | 22.44292 | 52.31056 | 35794 ft | 467 kts | 257° |
| 2026-05-04 21:34 | 22.42882 | 52.24212 | 35796 ft | 466 kts | 257° |
| 2026-05-04 21:35 | 22.41512 | 52.17393 | 35797 ft | 466 kts | 260° |
| 2026-05-04 21:35 | 22.40967 | 52.10416 | 35798 ft | 467 kts | 269° |
| 2026-05-04 21:36 | 22.41431 | 52.03401 | 35786 ft | 468 kts | 274° |
| 2026-05-04 21:36 | 22.42038 | 51.96391 | 35789 ft | 468 kts | 274° |
| 2026-05-04 21:37 | 22.42634 | 51.89433 | 35789 ft | 468 kts | 274° |
| 2026-05-04 21:37 | 22.43237 | 51.82421 | 35789 ft | 468 kts | 274° |
| 2026-05-04 21:38 | 22.43835 | 51.75413 | 35793 ft | 468 kts | 274° |
| 2026-05-04 21:38 | 22.44431 | 51.68395 | 35793 ft | 468 kts | 274° |
| 2026-05-04 21:39 | 22.45023 | 51.61385 | 35806 ft | 468 kts | 273° |
| 2026-05-04 21:39 | 22.45611 | 51.54382 | 35796 ft | 468 kts | 273° |
| 2026-05-04 21:40 | 22.46193 | 51.47422 | 35799 ft | 467 kts | 273° |
| 2026-05-04 21:40 | 22.46775 | 51.40419 | 35797 ft | 467 kts | 273° |
| 2026-05-04 21:41 | 22.47353 | 51.33434 | 35802 ft | 467 kts | 273° |
| 2026-05-04 21:41 | 22.47929 | 51.26426 | 35798 ft | 467 kts | 273° |
| 2026-05-04 21:42 | 22.48501 | 51.19431 | 35796 ft | 467 kts | 273° |
| 2026-05-04 21:42 | 22.49071 | 51.12428 | 35795 ft | 467 kts | 273° |
| 2026-05-04 21:43 | 22.49638 | 51.05423 | 35800 ft | 467 kts | 273° |
| 2026-05-04 21:43 | 22.50198 | 50.98465 | 35803 ft | 468 kts | 273° |
| 2026-05-04 21:44 | 22.50759 | 50.91462 | 35813 ft | 468 kts | 273° |
| 2026-05-04 21:44 | 22.51317 | 50.84456 | 35808 ft | 468 kts | 273° |
| 2026-05-04 21:45 | 22.51871 | 50.77449 | 35804 ft | 467 kts | 273° |
| 2026-05-04 21:45 | 22.52423 | 50.70448 | 35805 ft | 467 kts | 273° |
| 2026-05-04 21:46 | 22.52972 | 50.63433 | 35799 ft | 467 kts | 273° |
| 2026-05-04 21:46 | 22.53517 | 50.56434 | 35799 ft | 467 kts | 273° |
| 2026-05-04 21:47 | 22.54059 | 50.49435 | 35798 ft | 467 kts | 273° |
| 2026-05-04 21:47 | 22.54598 | 50.42433 | 35800 ft | 467 kts | 273° |
| 2026-05-04 21:48 | 22.55134 | 50.35428 | 35800 ft | 467 kts | 273° |
| 2026-05-04 21:48 | 22.55667 | 50.28422 | 35798 ft | 467 kts | 273° |
| 2026-05-04 21:49 | 22.56198 | 50.21409 | 35796 ft | 467 kts | 273° |
| 2026-05-04 21:49 | 22.56722 | 50.14444 | 35795 ft | 468 kts | 273° |
| 2026-05-04 21:50 | 22.57247 | 50.07423 | 35800 ft | 468 kts | 273° |
| 2026-05-04 21:50 | 22.57769 | 50.00406 | 35800 ft | 468 kts | 273° |
| 2026-05-04 21:51 | 22.58288 | 49.93379 | 35793 ft | 468 kts | 273° |
| 2026-05-04 21:51 | 22.58718 | 49.87538 | 35795 ft | 468 kts | 273° |
| 2026-05-04 21:52 | 22.59232 | 49.80503 | 35794 ft | 469 kts | 273° |
| 2026-05-04 21:52 | 22.59744 | 49.73461 | 35799 ft | 469 kts | 272° |
| 2026-05-04 21:53 | 22.60252 | 49.66423 | 35797 ft | 469 kts | 272° |
| 2026-05-04 21:53 | 22.60757 | 49.59389 | 35811 ft | 469 kts | 272° |
| 2026-05-04 21:54 | 22.61255 | 49.52409 | 35811 ft | 468 kts | 272° |
| 2026-05-04 21:54 | 22.61753 | 49.45388 | 35807 ft | 467 kts | 272° |
| 2026-05-04 21:55 | 22.62246 | 49.38386 | 35800 ft | 466 kts | 272° |
| 2026-05-04 21:55 | 22.62736 | 49.31396 | 35791 ft | 465 kts | 272° |
| 2026-05-04 21:56 | 22.63221 | 49.24420 | 35795 ft | 464 kts | 272° |
| 2026-05-04 21:56 | 22.63703 | 49.17453 | 35786 ft | 464 kts | 272° |
| 2026-05-04 21:57 | 22.64181 | 49.10494 | 35787 ft | 463 kts | 272° |
| 2026-05-04 21:57 | 22.64656 | 49.03535 | 35786 ft | 464 kts | 272° |
| 2026-05-04 21:58 | 22.65129 | 48.96573 | 35789 ft | 464 kts | 272° |
| 2026-05-04 21:58 | 22.65598 | 48.89610 | 35805 ft | 463 kts | 272° |
| 2026-05-04 21:59 | 22.66064 | 48.82654 | 35801 ft | 463 kts | 272° |
| 2026-05-04 21:59 | 22.66525 | 48.75732 | 35800 ft | 463 kts | 272° |
| 2026-05-04 22:00 | 22.66983 | 48.68791 | 35806 ft | 462 kts | 272° |
| 2026-05-04 22:00 | 22.67440 | 48.61840 | 35807 ft | 462 kts | 272° |
| 2026-05-04 22:01 | 22.67893 | 48.54886 | 35799 ft | 462 kts | 272° |
| 2026-05-04 22:01 | 22.68344 | 48.47937 | 35798 ft | 462 kts | 272° |
| 2026-05-04 22:02 | 22.68788 | 48.41034 | 35796 ft | 462 kts | 272° |
| 2026-05-04 22:02 | 22.69232 | 48.34086 | 35798 ft | 462 kts | 272° |
| 2026-05-04 22:03 | 22.69674 | 48.27132 | 35809 ft | 462 kts | 272° |
| 2026-05-04 22:03 | 22.70112 | 48.20187 | 35800 ft | 462 kts | 272° |
| 2026-05-04 22:04 | 22.70546 | 48.13248 | 35806 ft | 462 kts | 272° |
| 2026-05-04 22:04 | 22.70978 | 48.06304 | 35803 ft | 461 kts | 272° |
| 2026-05-04 22:05 | 22.71406 | 47.99370 | 35799 ft | 462 kts | 272° |
| 2026-05-04 22:05 | 22.71832 | 47.92425 | 35800 ft | 462 kts | 272° |
| 2026-05-04 22:06 | 22.72253 | 47.85511 | 35800 ft | 463 kts | 272° |
| 2026-05-04 22:06 | 22.72674 | 47.78544 | 35792 ft | 464 kts | 272° |
| 2026-05-04 22:07 | 22.73093 | 47.71556 | 35811 ft | 465 kts | 272° |
| 2026-05-04 22:07 | 22.73509 | 47.64568 | 35831 ft | 466 kts | 272° |
| 2026-05-04 22:08 | 22.73924 | 47.57559 | 35830 ft | 466 kts | 272° |
| 2026-05-04 22:08 | 22.74335 | 47.50555 | 35839 ft | 466 kts | 272° |
| 2026-05-04 22:09 | 22.74743 | 47.43552 | 35839 ft | 466 kts | 272° |
| 2026-05-04 22:09 | 22.75148 | 47.36549 | 35842 ft | 465 kts | 272° |
| 2026-05-04 22:10 | 22.75552 | 47.29549 | 35841 ft | 465 kts | 272° |
| 2026-05-04 22:10 | 22.75951 | 47.22600 | 35837 ft | 464 kts | 271° |
| 2026-05-04 22:11 | 22.76357 | 47.15617 | 35839 ft | 464 kts | 272° |
| 2026-05-04 22:11 | 22.76914 | 47.08644 | 35839 ft | 464 kts | 273° |
| 2026-05-04 22:12 | 22.77490 | 47.01673 | 35859 ft | 464 kts | 273° |
| 2026-05-04 22:12 | 22.78044 | 46.94698 | 35853 ft | 463 kts | 273° |
| 2026-05-04 22:13 | 22.78589 | 46.87740 | 35850 ft | 463 kts | 273° |
| 2026-05-04 22:13 | 22.79129 | 46.80794 | 35853 ft | 462 kts | 273° |
| 2026-05-04 22:14 | 22.79666 | 46.73851 | 35855 ft | 462 kts | 272° |
| 2026-05-04 22:14 | 22.80197 | 46.66956 | 35848 ft | 462 kts | 272° |
| 2026-05-04 22:15 | 22.80728 | 46.60014 | 35865 ft | 462 kts | 272° |
| 2026-05-04 22:15 | 22.81257 | 46.53063 | 35863 ft | 462 kts | 272° |
| 2026-05-04 22:16 | 22.81783 | 46.46104 | 35883 ft | 462 kts | 272° |
| 2026-05-04 22:16 | 22.82305 | 46.39167 | 35879 ft | 462 kts | 272° |
| 2026-05-04 22:17 | 22.82820 | 46.32230 | 35885 ft | 461 kts | 272° |
| 2026-05-04 22:17 | 22.83329 | 46.25349 | 35874 ft | 460 kts | 272° |
| 2026-05-04 22:18 | 22.83837 | 46.18436 | 35869 ft | 459 kts | 272° |
| 2026-05-04 22:18 | 22.84341 | 46.11535 | 35870 ft | 459 kts | 272° |
| 2026-05-04 22:19 | 22.84841 | 46.04639 | 35851 ft | 459 kts | 272° |
| 2026-05-04 22:19 | 22.85339 | 45.97745 | 35847 ft | 459 kts | 272° |
| 2026-05-04 22:20 | 22.85834 | 45.90848 | 35869 ft | 458 kts | 272° |
| 2026-05-04 22:20 | 22.86325 | 45.83959 | 35857 ft | 457 kts | 272° |
| 2026-05-04 22:21 | 22.86812 | 45.77083 | 35864 ft | 457 kts | 272° |
| 2026-05-04 22:21 | 22.87292 | 45.70259 | 35861 ft | 456 kts | 272° |
| 2026-05-04 22:22 | 22.87772 | 45.63407 | 35842 ft | 456 kts | 272° |
| 2026-05-04 22:22 | 22.88248 | 45.56567 | 35844 ft | 455 kts | 272° |
| 2026-05-04 22:23 | 22.88721 | 45.49719 | 35846 ft | 455 kts | 272° |
| 2026-05-04 22:23 | 22.89192 | 45.42864 | 35853 ft | 455 kts | 272° |
| 2026-05-04 22:24 | 22.89659 | 45.36012 | 35874 ft | 455 kts | 272° |
| 2026-05-04 22:24 | 22.90124 | 45.29168 | 35871 ft | 455 kts | 272° |
| 2026-05-04 22:25 | 22.90585 | 45.22322 | 35862 ft | 454 kts | 272° |
| 2026-05-04 22:25 | 22.91040 | 45.15535 | 35856 ft | 453 kts | 272° |
| 2026-05-04 22:26 | 22.91494 | 45.08714 | 35855 ft | 453 kts | 272° |
| 2026-05-04 22:26 | 22.91944 | 45.01896 | 35857 ft | 453 kts | 272° |
| 2026-05-04 22:27 | 22.92390 | 44.95078 | 35869 ft | 453 kts | 271° |
| 2026-05-04 22:27 | 22.92832 | 44.88294 | 35864 ft | 453 kts | 271° |
| 2026-05-04 22:28 | 22.93272 | 44.81484 | 35863 ft | 452 kts | 271° |
| 2026-05-04 22:28 | 22.93710 | 44.74664 | 35863 ft | 453 kts | 271° |
| 2026-05-04 22:29 | 22.94367 | 44.67861 | 35865 ft | 455 kts | 277° |
| 2026-05-04 22:29 | 22.96001 | 44.61200 | 35881 ft | 459 kts | 285° |
| 2026-05-04 22:30 | 22.98046 | 44.54652 | 35887 ft | 458 kts | 285° |
| 2026-05-04 22:30 | 23.00044 | 44.48148 | 35880 ft | 457 kts | 285° |
| 2026-05-04 22:31 | 23.02057 | 44.41601 | 35892 ft | 456 kts | 284° |
| 2026-05-04 22:31 | 23.04062 | 44.35077 | 35890 ft | 455 kts | 284° |
| 2026-05-04 22:32 | 23.06061 | 44.28566 | 35885 ft | 454 kts | 284° |
| 2026-05-04 22:32 | 23.08053 | 44.22068 | 35880 ft | 453 kts | 284° |
| 2026-05-04 22:33 | 23.10040 | 44.15574 | 35873 ft | 452 kts | 284° |
| 2026-05-04 22:33 | 23.12022 | 44.09082 | 35881 ft | 452 kts | 284° |
| 2026-05-04 22:34 | 23.13988 | 44.02635 | 35888 ft | 452 kts | 284° |
| 2026-05-04 22:34 | 23.15963 | 43.96147 | 35889 ft | 451 kts | 284° |
| 2026-05-04 22:35 | 23.17933 | 43.89667 | 35899 ft | 451 kts | 284° |
| 2026-05-04 22:35 | 23.19897 | 43.83197 | 35899 ft | 451 kts | 284° |
| 2026-05-04 22:36 | 23.21528 | 43.77814 | 35914 ft | 451 kts | 284° |
| 2026-05-04 22:36 | 23.23488 | 43.71334 | 35921 ft | 451 kts | 284° |
| 2026-05-04 22:37 | 23.25445 | 43.64855 | 35919 ft | 451 kts | 284° |
| 2026-05-04 22:37 | 23.27402 | 43.58366 | 35946 ft | 450 kts | 283° |
| 2026-05-04 22:38 | 23.29348 | 43.51903 | 35940 ft | 449 kts | 283° |
| 2026-05-04 22:38 | 23.31291 | 43.45441 | 35940 ft | 448 kts | 283° |
| 2026-05-04 22:39 | 23.33214 | 43.39033 | 35951 ft | 447 kts | 283° |
| 2026-05-04 22:39 | 23.35140 | 43.32604 | 35952 ft | 446 kts | 283° |
| 2026-05-04 22:40 | 23.37060 | 43.26187 | 35956 ft | 446 kts | 283° |
| 2026-05-04 22:40 | 23.38976 | 43.19771 | 35955 ft | 446 kts | 283° |
| 2026-05-04 22:41 | 23.40891 | 43.13347 | 35965 ft | 446 kts | 283° |
| 2026-05-04 22:41 | 23.42798 | 43.06924 | 35982 ft | 446 kts | 283° |
| 2026-05-04 22:42 | 23.44693 | 43.00530 | 35979 ft | 446 kts | 283° |
| 2026-05-04 22:42 | 23.46597 | 42.94095 | 35983 ft | 446 kts | 283° |
| 2026-05-04 22:43 | 23.48499 | 42.87657 | 35985 ft | 446 kts | 283° |
| 2026-05-04 22:43 | 23.50400 | 42.81211 | 35990 ft | 447 kts | 283° |
| 2026-05-04 22:44 | 23.52298 | 42.74767 | 35992 ft | 447 kts | 283° |
| 2026-05-04 22:44 | 23.54199 | 42.68316 | 35993 ft | 447 kts | 283° |
| 2026-05-04 22:45 | 23.56096 | 42.61871 | 35992 ft | 446 kts | 283° |
| 2026-05-04 22:45 | 23.58933 | 42.52208 | 35997 ft | 446 kts | 282° |
| 2026-05-04 22:46 | 23.60819 | 42.45772 | 35994 ft | 445 kts | 282° |
| 2026-05-04 22:46 | 23.62687 | 42.39384 | 36000 ft | 445 kts | 282° |
| 2026-05-04 22:47 | 23.64568 | 42.32943 | 35996 ft | 444 kts | 282° |
| 2026-05-04 22:47 | 23.66439 | 42.26522 | 35987 ft | 444 kts | 282° |
| 2026-05-04 22:48 | 23.68295 | 42.20121 | 35982 ft | 444 kts | 282° |
| 2026-05-04 22:48 | 23.70153 | 42.13700 | 35996 ft | 443 kts | 282° |
| 2026-05-04 22:49 | 23.72006 | 42.07289 | 35991 ft | 443 kts | 282° |
| 2026-05-04 22:49 | 23.73856 | 42.00878 | 35989 ft | 442 kts | 282° |
| 2026-05-04 22:50 | 23.75691 | 41.94518 | 35998 ft | 442 kts | 282° |
| 2026-05-04 22:50 | 23.77541 | 41.88122 | 35991 ft | 441 kts | 282° |
| 2026-05-04 22:51 | 23.79384 | 41.81731 | 35994 ft | 441 kts | 282° |
| 2026-05-04 22:51 | 23.81223 | 41.75345 | 36004 ft | 441 kts | 281° |
| 2026-05-04 22:52 | 23.83057 | 41.68954 | 36007 ft | 440 kts | 281° |
| 2026-05-04 22:52 | 23.84887 | 41.62569 | 35995 ft | 440 kts | 281° |
| 2026-05-04 22:53 | 23.86711 | 41.56195 | 36002 ft | 439 kts | 281° |
| 2026-05-04 22:53 | 23.88526 | 41.49819 | 35997 ft | 439 kts | 281° |
| 2026-05-04 22:54 | 23.90335 | 41.43440 | 35993 ft | 439 kts | 281° |
| 2026-05-04 22:54 | 23.92125 | 41.37119 | 35990 ft | 438 kts | 281° |
| 2026-05-04 22:55 | 23.93929 | 41.30752 | 35993 ft | 438 kts | 281° |
| 2026-05-04 22:55 | 23.95734 | 41.24387 | 35993 ft | 438 kts | 281° |
| 2026-05-04 22:56 | 23.97532 | 41.18031 | 35988 ft | 438 kts | 281° |
| 2026-05-04 22:56 | 23.99329 | 41.11670 | 36000 ft | 438 kts | 281° |
| 2026-05-04 22:57 | 24.01125 | 41.05298 | 35991 ft | 438 kts | 281° |
| 2026-05-04 22:57 | 24.02915 | 40.98938 | 35990 ft | 438 kts | 281° |
| 2026-05-04 22:58 | 24.04703 | 40.92571 | 35989 ft | 438 kts | 281° |
| 2026-05-04 22:58 | 24.06480 | 40.86239 | 35997 ft | 437 kts | 281° |
| 2026-05-04 22:59 | 24.08261 | 40.79878 | 35996 ft | 437 kts | 281° |
| 2026-05-04 22:59 | 24.10039 | 40.73516 | 35987 ft | 436 kts | 281° |
| 2026-05-04 23:00 | 24.11811 | 40.67165 | 35986 ft | 436 kts | 281° |
| 2026-05-04 23:00 | 24.13581 | 40.60811 | 35985 ft | 436 kts | 280° |
| 2026-05-04 23:01 | 24.15350 | 40.54464 | 35980 ft | 436 kts | 281° |
| 2026-05-04 23:01 | 24.17703 | 40.48271 | 35978 ft | 445 kts | 290° |
| 2026-05-04 23:02 | 24.20616 | 40.42259 | 35981 ft | 446 kts | 290° |
| 2026-05-04 23:02 | 24.23499 | 40.36228 | 35982 ft | 446 kts | 290° |
| 2026-05-04 23:03 | 24.26365 | 40.30234 | 35982 ft | 447 kts | 290° |
| 2026-05-04 23:03 | 24.29248 | 40.24204 | 35997 ft | 447 kts | 290° |
| 2026-05-04 23:04 | 24.32132 | 40.18166 | 35990 ft | 447 kts | 290° |
| 2026-05-04 23:04 | 24.35013 | 40.12125 | 35989 ft | 446 kts | 290° |
| 2026-05-04 23:05 | 24.37888 | 40.06091 | 35979 ft | 446 kts | 290° |
| 2026-05-04 23:05 | 24.40761 | 40.00053 | 35994 ft | 446 kts | 290° |
| 2026-05-04 23:06 | 24.43610 | 39.94056 | 35985 ft | 445 kts | 290° |
| 2026-05-04 23:06 | 24.46464 | 39.88041 | 35977 ft | 444 kts | 290° |
| 2026-05-04 23:07 | 24.49306 | 39.82044 | 35974 ft | 443 kts | 289° |
| 2026-05-04 23:07 | 24.52163 | 39.76055 | 35977 ft | 444 kts | 292° |
| 2026-05-04 23:08 | 24.55850 | 39.70490 | 35967 ft | 459 kts | 303° |
| 2026-05-04 23:08 | 24.60710 | 39.65764 | 35962 ft | 475 kts | 315° |
| 2026-05-04 23:09 | 24.66068 | 39.61522 | 35967 ft | 474 kts | 314° |
| 2026-05-04 23:09 | 24.71412 | 39.57241 | 35974 ft | 475 kts | 314° |
| 2026-05-04 23:10 | 24.76752 | 39.52966 | 35981 ft | 474 kts | 314° |
| 2026-05-04 23:10 | 24.82080 | 39.48701 | 35969 ft | 474 kts | 314° |
| 2026-05-04 23:11 | 24.87413 | 39.44425 | 35980 ft | 474 kts | 314° |
| 2026-05-04 23:11 | 24.92741 | 39.40150 | 35981 ft | 473 kts | 314° |
| 2026-05-04 23:12 | 24.98059 | 39.35878 | 35971 ft | 473 kts | 314° |
| 2026-05-04 23:12 | 25.03384 | 39.31595 | 35971 ft | 473 kts | 314° |
| 2026-05-04 23:13 | 25.08705 | 39.27313 | 35970 ft | 474 kts | 313° |
| 2026-05-04 23:13 | 25.14030 | 39.23021 | 35978 ft | 474 kts | 314° |
| 2026-05-04 23:14 | 25.19255 | 39.18615 | 35982 ft | 467 kts | 308° |
| 2026-05-04 23:14 | 25.23671 | 39.13510 | 35977 ft | 454 kts | 299° |
| 2026-05-04 23:15 | 25.27202 | 39.07870 | 35967 ft | 447 kts | 294° |
| 2026-05-04 23:15 | 25.30589 | 39.02094 | 35969 ft | 448 kts | 294° |
| 2026-05-04 23:16 | 25.33986 | 38.96314 | 35963 ft | 447 kts | 294° |
| 2026-05-04 23:16 | 25.37356 | 38.90549 | 35951 ft | 446 kts | 294° |
| 2026-05-04 23:17 | 25.40729 | 38.84766 | 35942 ft | 448 kts | 294° |
| 2026-05-04 23:17 | 25.44104 | 38.78970 | 35935 ft | 448 kts | 294° |
| 2026-05-04 23:18 | 25.47481 | 38.73166 | 35933 ft | 449 kts | 294° |
| 2026-05-04 23:18 | 25.50861 | 38.67348 | 35938 ft | 449 kts | 294° |
| 2026-05-04 23:19 | 25.54220 | 38.61559 | 35940 ft | 449 kts | 294° |
| 2026-05-04 23:19 | 25.57594 | 38.55740 | 35933 ft | 448 kts | 294° |
| 2026-05-04 23:20 | 25.60389 | 38.50912 | 35931 ft | 447 kts | 294° |
| 2026-05-04 23:20 | 25.63743 | 38.45112 | 35916 ft | 446 kts | 294° |
| 2026-05-04 23:21 | 25.67096 | 38.39307 | 35914 ft | 446 kts | 294° |
| 2026-05-04 23:21 | 25.70437 | 38.33514 | 35919 ft | 445 kts | 294° |
| 2026-05-04 23:22 | 25.73770 | 38.27729 | 35915 ft | 445 kts | 294° |
| 2026-05-04 23:22 | 25.77070 | 38.21994 | 35911 ft | 444 kts | 293° |
| 2026-05-04 23:23 | 25.80396 | 38.16205 | 35917 ft | 445 kts | 294° |
| 2026-05-04 23:23 | 25.83727 | 38.10387 | 35923 ft | 447 kts | 294° |
| 2026-05-04 23:24 | 25.87070 | 38.04561 | 35930 ft | 446 kts | 294° |
| 2026-05-04 23:24 | 25.90394 | 37.98764 | 35959 ft | 445 kts | 294° |
| 2026-05-04 23:25 | 25.93717 | 37.92948 | 35956 ft | 446 kts | 294° |
| 2026-05-04 23:25 | 25.97034 | 37.87120 | 35955 ft | 445 kts | 293° |
| 2026-05-04 23:26 | 25.99717 | 37.81092 | 35962 ft | 432 kts | 283° |
| 2026-05-04 23:26 | 26.01328 | 37.74756 | 35951 ft | 422 kts | 274° |
| 2026-05-04 23:27 | 26.02204 | 37.68323 | 35928 ft | 420 kts | 273° |
| 2026-05-04 23:27 | 26.03101 | 37.61964 | 35942 ft | 415 kts | 272° |
| 2026-05-04 23:28 | 26.03961 | 37.55518 | 35958 ft | 423 kts | 272° |
| 2026-05-04 23:28 | 26.04832 | 37.49044 | 35963 ft | 423 kts | 272° |
| 2026-05-04 23:29 | 26.05699 | 37.42581 | 35953 ft | 423 kts | 272° |
| 2026-05-04 23:29 | 26.06562 | 37.36121 | 35955 ft | 422 kts | 272° |
| 2026-05-04 23:30 | 26.07422 | 37.29662 | 35946 ft | 422 kts | 272° |
| 2026-05-04 23:30 | 26.08275 | 37.23216 | 35948 ft | 420 kts | 272° |
| 2026-05-04 23:31 | 26.09125 | 37.16785 | 35929 ft | 420 kts | 272° |
| 2026-05-04 23:31 | 26.09974 | 37.10359 | 35920 ft | 419 kts | 272° |
| 2026-05-04 23:32 | 26.10819 | 37.03936 | 35913 ft | 419 kts | 272° |
| 2026-05-04 23:32 | 26.11653 | 36.97550 | 35937 ft | 420 kts | 272° |
| 2026-05-04 23:33 | 26.12495 | 36.91100 | 35931 ft | 421 kts | 272° |
| 2026-05-04 23:33 | 26.13332 | 36.84654 | 35931 ft | 421 kts | 272° |
| 2026-05-04 23:34 | 26.14168 | 36.78201 | 35926 ft | 421 kts | 272° |
| 2026-05-04 23:34 | 26.15004 | 36.71722 | 35927 ft | 422 kts | 272° |
| 2026-05-04 23:35 | 26.15829 | 36.65299 | 35932 ft | 422 kts | 272° |
| 2026-05-04 23:35 | 26.16658 | 36.58831 | 35930 ft | 422 kts | 272° |
| 2026-05-04 23:36 | 26.17787 | 36.52395 | 35916 ft | 429 kts | 282° |
| 2026-05-04 23:36 | 26.20477 | 36.46344 | 35918 ft | 446 kts | 296° |
| 2026-05-04 23:37 | 26.24657 | 36.41085 | 35912 ft | 457 kts | 305° |
| 2026-05-04 23:37 | 26.29087 | 36.35995 | 35953 ft | 457 kts | 304° |
| 2026-05-04 23:38 | 26.33471 | 36.30930 | 35923 ft | 457 kts | 304° |
| 2026-05-04 23:38 | 26.37884 | 36.25834 | 35919 ft | 456 kts | 304° |
| 2026-05-04 23:39 | 26.42285 | 36.20747 | 35924 ft | 455 kts | 305° |
| 2026-05-04 23:39 | 26.46674 | 36.15667 | 35918 ft | 454 kts | 304° |
| 2026-05-04 23:40 | 26.51059 | 36.10586 | 35913 ft | 453 kts | 304° |
| 2026-05-04 23:40 | 26.55432 | 36.05513 | 35910 ft | 453 kts | 304° |
| 2026-05-04 23:41 | 26.59801 | 36.00439 | 35909 ft | 453 kts | 304° |
| 2026-05-04 23:41 | 26.64143 | 35.95390 | 35908 ft | 453 kts | 304° |
| 2026-05-04 23:42 | 26.68516 | 35.90299 | 35920 ft | 453 kts | 304° |
| 2026-05-04 23:42 | 26.72882 | 35.85210 | 35923 ft | 453 kts | 304° |
| 2026-05-04 23:43 | 26.77250 | 35.80113 | 35921 ft | 453 kts | 304° |
| 2026-05-04 23:43 | 26.81607 | 35.75024 | 35936 ft | 453 kts | 304° |
| 2026-05-04 23:44 | 26.85964 | 35.69928 | 35930 ft | 453 kts | 304° |
| 2026-05-04 23:44 | 26.90321 | 35.64828 | 35930 ft | 452 kts | 304° |
| 2026-05-04 23:45 | 26.94639 | 35.59767 | 35925 ft | 452 kts | 304° |
| 2026-05-04 23:45 | 26.98985 | 35.54665 | 35928 ft | 452 kts | 304° |
| 2026-05-04 23:46 | 27.03323 | 35.49568 | 35980 ft | 451 kts | 304° |
| 2026-05-04 23:46 | 27.07668 | 35.44456 | 35939 ft | 452 kts | 304° |
| 2026-05-04 23:47 | 27.12004 | 35.39350 | 35940 ft | 451 kts | 304° |
| 2026-05-04 23:47 | 27.16333 | 35.34246 | 35935 ft | 451 kts | 304° |
| 2026-05-04 23:48 | 27.20656 | 35.29141 | 35935 ft | 451 kts | 304° |
| 2026-05-04 23:48 | 27.24956 | 35.24068 | 35939 ft | 450 kts | 304° |
| 2026-05-04 23:49 | 27.29296 | 35.18924 | 35934 ft | 450 kts | 304° |
| 2026-05-04 23:49 | 27.33552 | 35.13879 | 35939 ft | 450 kts | 304° |
| 2026-05-04 23:50 | 27.37862 | 35.08765 | 35940 ft | 450 kts | 304° |
| 2026-05-04 23:50 | 27.42173 | 35.03645 | 35946 ft | 451 kts | 304° |
| 2026-05-04 23:51 | 27.46488 | 34.98513 | 35968 ft | 451 kts | 304° |
| 2026-05-04 23:51 | 27.50800 | 34.93381 | 35959 ft | 451 kts | 305° |
| 2026-05-04 23:52 | 27.55382 | 34.88482 | 35959 ft | 454 kts | 308° |
| 2026-05-04 23:52 | 27.59999 | 34.83610 | 35967 ft | 453 kts | 308° |
| 2026-05-04 23:53 | 27.64597 | 34.78746 | 35963 ft | 453 kts | 308° |
| 2026-05-04 23:53 | 27.69159 | 34.73914 | 35945 ft | 453 kts | 308° |
| 2026-05-04 23:54 | 27.73749 | 34.69049 | 35960 ft | 452 kts | 308° |
| 2026-05-04 23:54 | 27.78336 | 34.64180 | 35973 ft | 453 kts | 308° |
| 2026-05-04 23:55 | 27.82929 | 34.59299 | 35973 ft | 453 kts | 308° |
| 2026-05-04 23:56 | 27.89802 | 34.51985 | 35971 ft | 452 kts | 308° |
| 2026-05-04 23:56 | 27.94372 | 34.47114 | 35965 ft | 452 kts | 308° |
| 2026-05-04 23:57 | 27.98940 | 34.42229 | 35960 ft | 450 kts | 306° |
| 2026-05-04 23:57 | 28.02982 | 34.36934 | 35958 ft | 443 kts | 301° |
| 2026-05-04 23:58 | 28.06885 | 34.31537 | 35963 ft | 443 kts | 301° |
| 2026-05-04 23:58 | 28.10795 | 34.26138 | 35973 ft | 443 kts | 301° |
| 2026-05-04 23:59 | 28.14704 | 34.20724 | 36044 ft | 444 kts | 301° |
| 2026-05-04 23:59 | 28.18602 | 34.15313 | 36034 ft | 442 kts | 301° |
| 2026-05-05 00:00 | 28.22491 | 34.09912 | 36038 ft | 441 kts | 301° |
| 2026-05-05 00:00 | 28.26335 | 34.04559 | 36027 ft | 440 kts | 301° |
| 2026-05-05 00:01 | 28.30182 | 33.99199 | 36007 ft | 435 kts | 301° |
| 2026-05-05 00:01 | 28.34002 | 33.93865 | 36039 ft | 434 kts | 301° |
| 2026-05-05 00:02 | 28.37829 | 33.88525 | 36014 ft | 437 kts | 301° |
| 2026-05-05 00:02 | 28.41664 | 33.83163 | 36021 ft | 438 kts | 301° |
| 2026-05-05 00:03 | 28.45508 | 33.77779 | 36017 ft | 439 kts | 301° |
| 2026-05-05 00:03 | 28.49354 | 33.72389 | 36001 ft | 439 kts | 301° |
| 2026-05-05 00:04 | 28.52548 | 33.67909 | 36015 ft | 439 kts | 301° |
| 2026-05-05 00:04 | 28.56392 | 33.62509 | 36069 ft | 440 kts | 301° |
| 2026-05-05 00:05 | 28.60884 | 33.56208 | 36070 ft | 441 kts | 301° |
| 2026-05-05 00:05 | 28.64747 | 33.50778 | 36061 ft | 440 kts | 301° |
| 2026-05-05 00:06 | 28.67968 | 33.46234 | 36059 ft | 440 kts | 301° |
| 2026-05-05 00:06 | 28.71785 | 33.40845 | 36062 ft | 439 kts | 301° |
| 2026-05-05 00:07 | 28.75621 | 33.35423 | 36057 ft | 439 kts | 301° |
| 2026-05-05 00:07 | 28.79445 | 33.30012 | 36050 ft | 437 kts | 301° |
| 2026-05-05 00:08 | 28.83256 | 33.24608 | 36044 ft | 437 kts | 301° |
| 2026-05-05 00:08 | 28.87059 | 33.19211 | 36051 ft | 436 kts | 301° |
| 2026-05-05 00:09 | 28.90856 | 33.13815 | 36054 ft | 436 kts | 301° |
| 2026-05-05 00:09 | 28.94647 | 33.08422 | 36048 ft | 435 kts | 301° |
| 2026-05-05 00:10 | 28.98413 | 33.03056 | 36042 ft | 435 kts | 301° |
| 2026-05-05 00:10 | 29.02194 | 32.97662 | 36041 ft | 434 kts | 301° |
| 2026-05-05 00:11 | 29.05966 | 32.92273 | 36041 ft | 434 kts | 301° |
| 2026-05-05 00:11 | 29.09735 | 32.86882 | 36071 ft | 434 kts | 301° |
| 2026-05-05 00:12 | 29.13502 | 32.81487 | 36074 ft | 433 kts | 301° |
| 2026-05-05 00:12 | 29.17241 | 32.76126 | 36062 ft | 433 kts | 301° |
| 2026-05-05 00:13 | 29.20998 | 32.70731 | 36067 ft | 433 kts | 301° |
| 2026-05-05 00:13 | 29.24748 | 32.65338 | 36071 ft | 433 kts | 301° |
| 2026-05-05 00:14 | 29.28501 | 32.59935 | 36070 ft | 433 kts | 301° |
| 2026-05-05 00:14 | 29.32226 | 32.54527 | 36070 ft | 432 kts | 301° |
| 2026-05-05 00:15 | 29.35939 | 32.49110 | 36078 ft | 432 kts | 301° |
| 2026-05-05 00:15 | 29.39653 | 32.43694 | 36077 ft | 432 kts | 301° |
| 2026-05-05 00:16 | 29.43366 | 32.38267 | 36083 ft | 432 kts | 301° |
| 2026-05-05 00:16 | 29.47084 | 32.32829 | 36112 ft | 432 kts | 301° |
| 2026-05-05 00:17 | 29.50769 | 32.27434 | 36110 ft | 432 kts | 301° |
| 2026-05-05 00:17 | 29.54468 | 32.22011 | 36102 ft | 432 kts | 301° |
| 2026-05-05 00:18 | 29.58170 | 32.16576 | 36105 ft | 431 kts | 301° |
| 2026-05-05 00:18 | 29.61866 | 32.11144 | 36098 ft | 430 kts | 301° |
| 2026-05-05 00:19 | 29.65541 | 32.05732 | 36106 ft | 430 kts | 301° |
| 2026-05-05 00:19 | 29.69219 | 32.00311 | 36093 ft | 429 kts | 301° |
| 2026-05-05 00:20 | 29.72890 | 31.94893 | 36092 ft | 429 kts | 301° |
| 2026-05-05 00:20 | 29.76553 | 31.89479 | 36091 ft | 429 kts | 301° |
| 2026-05-05 00:21 | 29.80168 | 31.84075 | 36097 ft | 428 kts | 300° |
| 2026-05-05 00:21 | 29.83685 | 31.78554 | 36095 ft | 427 kts | 300° |
| 2026-05-05 00:22 | 29.87198 | 31.73040 | 36088 ft | 427 kts | 300° |
| 2026-05-05 00:22 | 29.90725 | 31.67527 | 36087 ft | 427 kts | 300° |
| 2026-05-05 00:23 | 29.94271 | 31.62016 | 36090 ft | 427 kts | 300° |
| 2026-05-05 00:23 | 29.97836 | 31.56517 | 36077 ft | 428 kts | 300° |
| 2026-05-05 00:24 | 30.01399 | 31.51005 | 36096 ft | 428 kts | 300° |
| 2026-05-05 00:24 | 30.04930 | 31.45533 | 36091 ft | 428 kts | 300° |
| 2026-05-05 00:25 | 30.08530 | 31.40050 | 36090 ft | 430 kts | 303° |
| 2026-05-05 00:25 | 30.12759 | 31.35074 | 36087 ft | 437 kts | 310° |
| 2026-05-05 00:26 | 30.17216 | 31.30304 | 36082 ft | 437 kts | 310° |
| 2026-05-05 00:26 | 30.21667 | 31.25509 | 36085 ft | 437 kts | 310° |
| 2026-05-05 00:27 | 30.26112 | 31.20722 | 36106 ft | 436 kts | 310° |
| 2026-05-05 00:27 | 30.30530 | 31.15963 | 36107 ft | 436 kts | 310° |
| 2026-05-05 00:28 | 30.34967 | 31.11178 | 36105 ft | 436 kts | 310° |
| 2026-05-05 00:28 | 30.39402 | 31.06388 | 36100 ft | 435 kts | 310° |
| 2026-05-05 00:29 | 30.43830 | 31.01600 | 36098 ft | 435 kts | 310° |
| 2026-05-05 00:29 | 30.48249 | 30.96815 | 36097 ft | 435 kts | 310° |
| 2026-05-05 00:30 | 30.52686 | 30.92002 | 36090 ft | 437 kts | 310° |
| 2026-05-05 00:30 | 30.57136 | 30.87172 | 36094 ft | 439 kts | 310° |
| 2026-05-05 00:31 | 30.61594 | 30.82326 | 36105 ft | 439 kts | 310° |
| 2026-05-05 00:31 | 30.66035 | 30.77492 | 36109 ft | 440 kts | 310° |
| 2026-05-05 00:32 | 30.70509 | 30.72616 | 36107 ft | 440 kts | 310° |
| 2026-05-05 00:32 | 30.74980 | 30.67736 | 36108 ft | 440 kts | 310° |
| 2026-05-05 00:33 | 30.79445 | 30.62857 | 36106 ft | 440 kts | 310° |
| 2026-05-05 00:33 | 30.83905 | 30.57976 | 36124 ft | 440 kts | 310° |
| 2026-05-05 00:34 | 30.88368 | 30.53085 | 36099 ft | 440 kts | 310° |
| 2026-05-05 00:34 | 30.92808 | 30.48214 | 36088 ft | 440 kts | 310° |
| 2026-05-05 00:35 | 30.97263 | 30.43318 | 36086 ft | 440 kts | 310° |
| 2026-05-05 00:35 | 31.01714 | 30.38421 | 36086 ft | 440 kts | 311° |
| 2026-05-05 00:36 | 31.06080 | 30.33421 | 36084 ft | 435 kts | 305° |
| 2026-05-05 00:36 | 31.09451 | 30.27648 | 36077 ft | 428 kts | 294° |
| 2026-05-05 00:37 | 31.11624 | 30.21238 | 36080 ft | 424 kts | 285° |
| 2026-05-05 00:37 | 31.13404 | 30.14711 | 36077 ft | 424 kts | 285° |
| 2026-05-05 00:38 | 31.15206 | 30.08145 | 36066 ft | 425 kts | 285° |
| 2026-05-05 00:38 | 31.16999 | 30.01560 | 36072 ft | 426 kts | 286° |
| 2026-05-05 00:39 | 31.19283 | 29.95158 | 36074 ft | 429 kts | 294° |
| 2026-05-05 00:39 | 31.22433 | 29.89197 | 36077 ft | 434 kts | 302° |
| 2026-05-05 00:40 | 31.26013 | 29.83502 | 36079 ft | 434 kts | 302° |
| 2026-05-05 00:40 | 31.29565 | 29.77787 | 36091 ft | 435 kts | 302° |
| 2026-05-05 00:41 | 31.33120 | 29.72072 | 36091 ft | 434 kts | 302° |
| 2026-05-05 00:41 | 31.36673 | 29.66360 | 36084 ft | 434 kts | 302° |
| 2026-05-05 00:42 | 31.40217 | 29.60653 | 36082 ft | 433 kts | 302° |
| 2026-05-05 00:42 | 31.43753 | 29.54950 | 36078 ft | 433 kts | 302° |
| 2026-05-05 00:43 | 31.47289 | 29.49238 | 36082 ft | 432 kts | 303° |
| 2026-05-05 00:43 | 31.50814 | 29.43536 | 36082 ft | 432 kts | 302° |
| 2026-05-05 00:44 | 31.54313 | 29.37869 | 36076 ft | 432 kts | 302° |
| 2026-05-05 00:44 | 31.57832 | 29.32160 | 36079 ft | 432 kts | 302° |
| 2026-05-05 00:45 | 31.61344 | 29.26446 | 36078 ft | 432 kts | 302° |
| 2026-05-05 00:45 | 31.64851 | 29.20720 | 36087 ft | 431 kts | 303° |
| 2026-05-05 00:46 | 31.68353 | 29.14996 | 36121 ft | 431 kts | 303° |
| 2026-05-05 00:46 | 31.71934 | 29.09331 | 36093 ft | 433 kts | 307° |
| 2026-05-05 00:47 | 31.76186 | 29.04271 | 36087 ft | 437 kts | 315° |
| 2026-05-05 00:47 | 31.80897 | 28.99742 | 36070 ft | 438 kts | 316° |
| 2026-05-05 00:48 | 31.84804 | 28.95961 | 36096 ft | 437 kts | 316° |
| 2026-05-05 00:48 | 31.89499 | 28.91423 | 36086 ft | 437 kts | 316° |
| 2026-05-05 00:49 | 31.94199 | 28.86882 | 36090 ft | 437 kts | 316° |
| 2026-05-05 00:49 | 31.98903 | 28.82333 | 36085 ft | 437 kts | 316° |
| 2026-05-05 00:50 | 32.03599 | 28.77785 | 36095 ft | 437 kts | 316° |
| 2026-05-05 00:50 | 32.08267 | 28.73258 | 36089 ft | 436 kts | 316° |
| 2026-05-05 00:51 | 32.12951 | 28.68709 | 36083 ft | 435 kts | 316° |
| 2026-05-05 00:51 | 32.17621 | 28.64167 | 36083 ft | 434 kts | 317° |
| 2026-05-05 00:52 | 32.22281 | 28.59629 | 36079 ft | 434 kts | 317° |
| 2026-05-05 00:52 | 32.26942 | 28.55083 | 36073 ft | 434 kts | 317° |
| 2026-05-05 00:53 | 32.31594 | 28.50540 | 36079 ft | 434 kts | 317° |
| 2026-05-05 00:53 | 32.36247 | 28.45990 | 36095 ft | 434 kts | 317° |
| 2026-05-05 00:54 | 32.40899 | 28.41435 | 36090 ft | 433 kts | 317° |
| 2026-05-05 00:54 | 32.45512 | 28.36911 | 36081 ft | 433 kts | 317° |
| 2026-05-05 00:55 | 32.50142 | 28.32364 | 36087 ft | 431 kts | 317° |
| 2026-05-05 00:55 | 32.54764 | 28.27819 | 36085 ft | 431 kts | 317° |
| 2026-05-05 00:56 | 32.59374 | 28.23280 | 36077 ft | 431 kts | 317° |
| 2026-05-05 00:56 | 32.63979 | 28.18739 | 36075 ft | 430 kts | 317° |
| 2026-05-05 00:57 | 32.68557 | 28.14218 | 36077 ft | 430 kts | 317° |
| 2026-05-05 00:57 | 32.73165 | 28.09662 | 36074 ft | 431 kts | 317° |
| 2026-05-05 00:58 | 32.77766 | 28.05106 | 36087 ft | 430 kts | 317° |
| 2026-05-05 00:58 | 32.82369 | 28.00543 | 36091 ft | 430 kts | 317° |
| 2026-05-05 00:59 | 32.86963 | 27.95981 | 36090 ft | 430 kts | 317° |
| 2026-05-05 00:59 | 32.91559 | 27.91411 | 36091 ft | 430 kts | 317° |
| 2026-05-05 01:00 | 32.96147 | 27.86843 | 36096 ft | 430 kts | 317° |
| 2026-05-05 01:00 | 33.00734 | 27.82269 | 36094 ft | 430 kts | 317° |
| 2026-05-05 01:01 | 33.05108 | 27.77902 | 36094 ft | 429 kts | 317° |
| 2026-05-05 01:01 | 33.09685 | 27.73326 | 36082 ft | 429 kts | 317° |
| 2026-05-05 01:02 | 33.14257 | 27.68749 | 36083 ft | 429 kts | 317° |
| 2026-05-05 01:02 | 33.18800 | 27.64193 | 36080 ft | 429 kts | 317° |
| 2026-05-05 01:03 | 33.23369 | 27.59606 | 36078 ft | 429 kts | 317° |
| 2026-05-05 01:03 | 33.27937 | 27.55012 | 36074 ft | 429 kts | 317° |
| 2026-05-05 01:04 | 33.32511 | 27.50406 | 36075 ft | 430 kts | 317° |
| 2026-05-05 01:04 | 33.39362 | 27.43496 | 36095 ft | 429 kts | 317° |
| 2026-05-05 01:05 | 33.43925 | 27.38885 | 36094 ft | 429 kts | 317° |
| 2026-05-05 01:05 | 33.48484 | 27.34272 | 36094 ft | 429 kts | 317° |
| 2026-05-05 01:06 | 33.53038 | 27.29657 | 36096 ft | 428 kts | 317° |
| 2026-05-05 01:06 | 33.57563 | 27.25065 | 36095 ft | 428 kts | 317° |
| 2026-05-05 01:07 | 33.62117 | 27.20436 | 36084 ft | 429 kts | 318° |
| 2026-05-05 01:07 | 33.66665 | 27.15808 | 36098 ft | 428 kts | 318° |
| 2026-05-05 01:08 | 33.71212 | 27.11173 | 36101 ft | 428 kts | 318° |
| 2026-05-05 01:08 | 33.75729 | 27.06563 | 36081 ft | 428 kts | 318° |
| 2026-05-05 01:09 | 33.80264 | 27.01927 | 36086 ft | 428 kts | 318° |
| 2026-05-05 01:09 | 33.84807 | 26.97277 | 36077 ft | 428 kts | 318° |
| 2026-05-05 01:10 | 33.89344 | 26.92626 | 36100 ft | 428 kts | 318° |
| 2026-05-05 01:10 | 33.93879 | 26.87972 | 36090 ft | 429 kts | 318° |
| 2026-05-05 01:11 | 33.98418 | 26.83309 | 36089 ft | 428 kts | 318° |
| 2026-05-05 01:11 | 34.03015 | 26.78742 | 36089 ft | 429 kts | 321° |
| 2026-05-05 01:12 | 34.07779 | 26.74409 | 36089 ft | 429 kts | 321° |
| 2026-05-05 01:12 | 34.12532 | 26.70045 | 36088 ft | 429 kts | 321° |
| 2026-05-05 01:13 | 34.17255 | 26.65660 | 36088 ft | 429 kts | 320° |
| 2026-05-05 01:13 | 34.21956 | 26.61280 | 36093 ft | 429 kts | 321° |
| 2026-05-05 01:14 | 34.26696 | 26.56858 | 36093 ft | 429 kts | 321° |
| 2026-05-05 01:14 | 34.31419 | 26.52445 | 36089 ft | 429 kts | 321° |
| 2026-05-05 01:15 | 34.36139 | 26.48030 | 36090 ft | 429 kts | 321° |
| 2026-05-05 01:15 | 34.40857 | 26.43609 | 36088 ft | 429 kts | 321° |
| 2026-05-05 01:16 | 34.45581 | 26.39177 | 36088 ft | 429 kts | 321° |
| 2026-05-05 01:16 | 34.50302 | 26.34740 | 36096 ft | 430 kts | 321° |
| 2026-05-05 01:17 | 34.55025 | 26.30296 | 36091 ft | 430 kts | 321° |
| 2026-05-05 01:17 | 34.59746 | 26.25848 | 36070 ft | 430 kts | 321° |
| 2026-05-05 01:18 | 34.64437 | 26.21420 | 36085 ft | 429 kts | 321° |
| 2026-05-05 01:18 | 34.69161 | 26.16955 | 36094 ft | 430 kts | 321° |
| 2026-05-05 01:19 | 34.73881 | 26.12487 | 36091 ft | 430 kts | 321° |
| 2026-05-05 01:19 | 34.78591 | 26.08022 | 36119 ft | 430 kts | 321° |
| 2026-05-05 01:20 | 34.83325 | 26.03527 | 36096 ft | 431 kts | 321° |
| 2026-05-05 01:20 | 34.88063 | 25.99022 | 36098 ft | 431 kts | 321° |
| 2026-05-05 01:21 | 34.92789 | 25.94521 | 36078 ft | 431 kts | 321° |
| 2026-05-05 01:21 | 34.97483 | 25.90044 | 36092 ft | 431 kts | 321° |
| 2026-05-05 01:22 | 35.02208 | 25.85531 | 36096 ft | 431 kts | 321° |
| 2026-05-05 01:22 | 35.06936 | 25.81008 | 36098 ft | 432 kts | 321° |
| 2026-05-05 01:23 | 35.11675 | 25.76466 | 36107 ft | 433 kts | 321° |
| 2026-05-05 01:23 | 35.16401 | 25.71905 | 36109 ft | 433 kts | 321° |
| 2026-05-05 01:24 | 35.21124 | 25.67339 | 36103 ft | 433 kts | 321° |
| 2026-05-05 01:24 | 35.25852 | 25.62783 | 36100 ft | 432 kts | 321° |
| 2026-05-05 01:25 | 35.30579 | 25.58233 | 36106 ft | 432 kts | 321° |
| 2026-05-05 01:25 | 35.35281 | 25.53698 | 36106 ft | 432 kts | 321° |
| 2026-05-05 01:26 | 35.40009 | 25.49127 | 36249 ft | 436 kts | 321° |
| 2026-05-05 01:26 | 35.42394 | 25.46819 | 36711 ft | 435 kts | 321° |
| 2026-05-05 01:26 | 35.44775 | 25.44513 | 37130 ft | 435 kts | 321° |
| 2026-05-05 01:27 | 35.47150 | 25.42212 | 37546 ft | 435 kts | 321° |
| 2026-05-05 01:27 | 35.49524 | 25.39909 | 37944 ft | 435 kts | 321° |
| 2026-05-05 01:27 | 35.51912 | 25.37591 | 38107 ft | 440 kts | 321° |
| 2026-05-05 01:27 | 35.54292 | 25.35280 | 38103 ft | 431 kts | 321° |
| 2026-05-05 01:28 | 35.58990 | 25.30711 | 38112 ft | 432 kts | 321° |
| 2026-05-05 01:28 | 35.63702 | 25.26120 | 38107 ft | 432 kts | 321° |
| 2026-05-05 01:29 | 35.68418 | 25.21519 | 38103 ft | 432 kts | 321° |
| 2026-05-05 01:29 | 35.73124 | 25.16921 | 38100 ft | 432 kts | 320° |
| 2026-05-05 01:30 | 35.77800 | 25.12345 | 38102 ft | 432 kts | 320° |
| 2026-05-05 01:30 | 35.82502 | 25.07737 | 38100 ft | 432 kts | 320° |
| 2026-05-05 01:31 | 35.87207 | 25.03118 | 38099 ft | 432 kts | 320° |
| 2026-05-05 01:31 | 35.91901 | 24.98503 | 38104 ft | 432 kts | 320° |
| 2026-05-05 01:32 | 35.96604 | 24.93871 | 38094 ft | 433 kts | 321° |
| 2026-05-05 01:32 | 36.00516 | 24.90014 | 38099 ft | 433 kts | 320° |
| 2026-05-05 01:33 | 36.05228 | 24.85361 | 38105 ft | 433 kts | 320° |
| 2026-05-05 01:33 | 36.09936 | 24.80703 | 38105 ft | 433 kts | 320° |
| 2026-05-05 01:34 | 36.14644 | 24.76035 | 38106 ft | 434 kts | 320° |
| 2026-05-05 01:34 | 36.19324 | 24.71388 | 38107 ft | 434 kts | 320° |
| 2026-05-05 01:35 | 36.24029 | 24.66709 | 38106 ft | 434 kts | 320° |
| 2026-05-05 01:35 | 36.28736 | 24.62021 | 38102 ft | 434 kts | 320° |
| 2026-05-05 01:36 | 36.33449 | 24.57320 | 38104 ft | 435 kts | 320° |
| 2026-05-05 01:36 | 36.38164 | 24.52609 | 38107 ft | 435 kts | 320° |
| 2026-05-05 01:37 | 36.42880 | 24.47888 | 38109 ft | 435 kts | 320° |
| 2026-05-05 01:37 | 36.47590 | 24.43167 | 38110 ft | 435 kts | 320° |
| 2026-05-05 01:38 | 36.52306 | 24.38432 | 38094 ft | 435 kts | 320° |
| 2026-05-05 01:38 | 36.57012 | 24.33699 | 38099 ft | 436 kts | 320° |
| 2026-05-05 01:39 | 36.61697 | 24.28981 | 38104 ft | 436 kts | 320° |
| 2026-05-05 01:39 | 36.66444 | 24.24191 | 38106 ft | 436 kts | 320° |
| 2026-05-05 01:40 | 36.71136 | 24.19449 | 38109 ft | 437 kts | 320° |
| 2026-05-05 01:40 | 36.75855 | 24.14673 | 38109 ft | 437 kts | 320° |
| 2026-05-05 01:41 | 36.80574 | 24.09888 | 38112 ft | 437 kts | 320° |
| 2026-05-05 01:41 | 36.85291 | 24.05098 | 38117 ft | 437 kts | 320° |
| 2026-05-05 01:42 | 36.90008 | 24.00300 | 38105 ft | 437 kts | 320° |
| 2026-05-05 01:42 | 36.94730 | 23.95491 | 38107 ft | 437 kts | 320° |
| 2026-05-05 01:43 | 36.99449 | 23.90682 | 38104 ft | 437 kts | 320° |
| 2026-05-05 01:43 | 37.04166 | 23.85867 | 38107 ft | 438 kts | 320° |
| 2026-05-05 01:44 | 37.08854 | 23.81073 | 38108 ft | 437 kts | 320° |
| 2026-05-05 01:44 | 37.13573 | 23.76239 | 38100 ft | 438 kts | 320° |
| 2026-05-05 01:45 | 37.18296 | 23.71392 | 38103 ft | 438 kts | 320° |
| 2026-05-05 01:45 | 37.23012 | 23.66546 | 38101 ft | 438 kts | 320° |
| 2026-05-05 01:46 | 37.27726 | 23.61693 | 38108 ft | 438 kts | 320° |
| 2026-05-05 01:46 | 37.32445 | 23.56827 | 38107 ft | 438 kts | 320° |
| 2026-05-05 01:47 | 37.37150 | 23.51968 | 38104 ft | 438 kts | 320° |
| 2026-05-05 01:47 | 37.41828 | 23.47128 | 38098 ft | 439 kts | 321° |
| 2026-05-05 01:48 | 37.46547 | 23.42236 | 38078 ft | 439 kts | 320° |
| 2026-05-05 01:48 | 37.51257 | 23.37345 | 38105 ft | 439 kts | 320° |
| 2026-05-05 01:49 | 37.55974 | 23.32440 | 38113 ft | 440 kts | 320° |
| 2026-05-05 01:49 | 37.60704 | 23.27513 | 38114 ft | 440 kts | 320° |
| 2026-05-05 01:50 | 37.65421 | 23.22591 | 38123 ft | 440 kts | 320° |
| 2026-05-05 01:50 | 37.70146 | 23.17652 | 38111 ft | 441 kts | 321° |
| 2026-05-05 01:51 | 37.74874 | 23.12702 | 38113 ft | 442 kts | 321° |
| 2026-05-05 01:51 | 37.79595 | 23.07751 | 38130 ft | 441 kts | 320° |
| 2026-05-05 01:52 | 37.84313 | 23.02794 | 38129 ft | 441 kts | 320° |
| 2026-05-05 01:52 | 37.88998 | 22.97862 | 38127 ft | 440 kts | 320° |
| 2026-05-05 01:53 | 37.93705 | 22.92902 | 38124 ft | 440 kts | 320° |
| 2026-05-05 01:53 | 37.98419 | 22.87941 | 38113 ft | 440 kts | 320° |
| 2026-05-05 01:54 | 38.03135 | 22.82983 | 38120 ft | 440 kts | 320° |
| 2026-05-05 01:54 | 38.07853 | 22.78015 | 38100 ft | 441 kts | 320° |
| 2026-05-05 01:55 | 38.12565 | 22.73041 | 38122 ft | 440 kts | 320° |
| 2026-05-05 01:55 | 38.17269 | 22.68066 | 38125 ft | 440 kts | 320° |
| 2026-05-05 01:56 | 38.21974 | 22.63080 | 38123 ft | 440 kts | 320° |
| 2026-05-05 01:56 | 38.26682 | 22.58083 | 38123 ft | 440 kts | 320° |
| 2026-05-05 01:57 | 38.31381 | 22.53087 | 38124 ft | 441 kts | 320° |
| 2026-05-05 01:57 | 38.36060 | 22.48103 | 38127 ft | 441 kts | 320° |
| 2026-05-05 01:58 | 38.40749 | 22.43100 | 38148 ft | 440 kts | 320° |
| 2026-05-05 01:58 | 38.45435 | 22.38091 | 38142 ft | 440 kts | 320° |
| 2026-05-05 01:59 | 38.50125 | 22.33069 | 38136 ft | 439 kts | 320° |
| 2026-05-05 01:59 | 38.54799 | 22.28056 | 38146 ft | 439 kts | 320° |
| 2026-05-05 02:00 | 38.59472 | 22.23035 | 38149 ft | 439 kts | 320° |
| 2026-05-05 02:00 | 38.64142 | 22.18008 | 38157 ft | 438 kts | 320° |
| 2026-05-05 02:01 | 38.68805 | 22.12979 | 38137 ft | 438 kts | 320° |
| 2026-05-05 02:01 | 38.73459 | 22.07954 | 38154 ft | 437 kts | 320° |
| 2026-05-05 02:02 | 38.78104 | 22.02927 | 38162 ft | 436 kts | 320° |
| 2026-05-05 02:02 | 38.82710 | 21.97933 | 38149 ft | 437 kts | 320° |
| 2026-05-05 02:03 | 38.87355 | 21.92889 | 38160 ft | 437 kts | 320° |
| 2026-05-05 02:03 | 38.91988 | 21.87849 | 38158 ft | 437 kts | 320° |
| 2026-05-05 02:04 | 38.96623 | 21.82798 | 38164 ft | 437 kts | 320° |
| 2026-05-05 02:04 | 39.01267 | 21.77727 | 38181 ft | 437 kts | 320° |
| 2026-05-05 02:05 | 39.05906 | 21.72654 | 38184 ft | 437 kts | 320° |
| 2026-05-05 02:05 | 39.10536 | 21.67581 | 38170 ft | 437 kts | 320° |
| 2026-05-05 02:06 | 39.15165 | 21.62500 | 38168 ft | 437 kts | 320° |
| 2026-05-05 02:06 | 39.19756 | 21.57452 | 38160 ft | 436 kts | 320° |
| 2026-05-05 02:07 | 39.24370 | 21.52365 | 38163 ft | 436 kts | 320° |
| 2026-05-05 02:07 | 39.28983 | 21.47277 | 38170 ft | 437 kts | 319° |
| 2026-05-05 02:08 | 39.33614 | 21.42162 | 38152 ft | 438 kts | 320° |
| 2026-05-05 02:08 | 39.38242 | 21.37037 | 38165 ft | 439 kts | 320° |
| 2026-05-05 02:09 | 39.42888 | 21.31878 | 38179 ft | 440 kts | 320° |
| 2026-05-05 02:09 | 39.47539 | 21.26708 | 38174 ft | 441 kts | 320° |
| 2026-05-05 02:10 | 39.52190 | 21.21531 | 38183 ft | 441 kts | 320° |
| 2026-05-05 02:10 | 39.56835 | 21.16348 | 38187 ft | 440 kts | 319° |
| 2026-05-05 02:11 | 39.61473 | 21.11164 | 38190 ft | 440 kts | 319° |
| 2026-05-05 02:11 | 39.66105 | 21.05977 | 38191 ft | 439 kts | 319° |
| 2026-05-05 02:12 | 39.73041 | 20.98194 | 38186 ft | 438 kts | 319° |
| 2026-05-05 02:13 | 39.77651 | 20.93008 | 38183 ft | 438 kts | 319° |
| 2026-05-05 02:13 | 39.82224 | 20.87854 | 38175 ft | 437 kts | 319° |
| 2026-05-05 02:14 | 39.86820 | 20.82666 | 38169 ft | 437 kts | 319° |
| 2026-05-05 02:14 | 39.91402 | 20.77483 | 38168 ft | 436 kts | 319° |
| 2026-05-05 02:15 | 39.95209 | 20.73171 | 38163 ft | 435 kts | 319° |
| 2026-05-05 02:15 | 39.99785 | 20.67977 | 38169 ft | 436 kts | 319° |
| 2026-05-05 02:16 | 40.04362 | 20.62777 | 38167 ft | 436 kts | 319° |
| 2026-05-05 02:16 | 40.08956 | 20.57598 | 38168 ft | 436 kts | 321° |
| 2026-05-05 02:17 | 40.13747 | 20.52721 | 38165 ft | 437 kts | 322° |
| 2026-05-05 02:17 | 40.18560 | 20.47852 | 38169 ft | 437 kts | 322° |
| 2026-05-05 02:18 | 40.23349 | 20.42939 | 38180 ft | 438 kts | 321° |
| 2026-05-05 02:18 | 40.28130 | 20.38006 | 38179 ft | 438 kts | 321° |
| 2026-05-05 02:19 | 40.32911 | 20.33062 | 38173 ft | 438 kts | 321° |
| 2026-05-05 02:19 | 40.37693 | 20.28109 | 38169 ft | 437 kts | 321° |
| 2026-05-05 02:20 | 40.42442 | 20.23181 | 38155 ft | 438 kts | 321° |
| 2026-05-05 02:20 | 40.47215 | 20.18219 | 38147 ft | 438 kts | 321° |
| 2026-05-05 02:21 | 40.51988 | 20.13248 | 38130 ft | 438 kts | 321° |
| 2026-05-05 02:21 | 40.56762 | 20.08267 | 38151 ft | 438 kts | 321° |
| 2026-05-05 02:22 | 40.61535 | 20.03277 | 38144 ft | 438 kts | 321° |
| 2026-05-05 02:22 | 40.66272 | 19.98316 | 38137 ft | 438 kts | 321° |
| 2026-05-05 02:23 | 40.71040 | 19.93313 | 38132 ft | 438 kts | 321° |
| 2026-05-05 02:23 | 40.75804 | 19.88303 | 38130 ft | 438 kts | 321° |
| 2026-05-05 02:24 | 40.80573 | 19.83281 | 38127 ft | 438 kts | 321° |
| 2026-05-05 02:24 | 40.85334 | 19.78257 | 38126 ft | 437 kts | 321° |
| 2026-05-05 02:25 | 40.90093 | 19.73225 | 38126 ft | 438 kts | 321° |
| 2026-05-05 02:25 | 40.94849 | 19.68187 | 38121 ft | 438 kts | 321° |
| 2026-05-05 02:26 | 40.99608 | 19.63136 | 38123 ft | 438 kts | 321° |
| 2026-05-05 02:26 | 41.04369 | 19.58074 | 38124 ft | 438 kts | 321° |
| 2026-05-05 02:27 | 41.09132 | 19.52999 | 38121 ft | 438 kts | 320° |
| 2026-05-05 02:27 | 41.13857 | 19.47955 | 38122 ft | 439 kts | 320° |
| 2026-05-05 02:28 | 41.18619 | 19.42862 | 38115 ft | 438 kts | 320° |
| 2026-05-05 02:28 | 41.23359 | 19.37783 | 38123 ft | 438 kts | 320° |
| 2026-05-05 02:29 | 41.28095 | 19.32699 | 38123 ft | 437 kts | 320° |
| 2026-05-05 02:29 | 41.32832 | 19.27604 | 38119 ft | 437 kts | 320° |
| 2026-05-05 02:30 | 41.37531 | 19.22539 | 38115 ft | 437 kts | 320° |
| 2026-05-05 02:30 | 41.42262 | 19.17431 | 38109 ft | 438 kts | 320° |
| 2026-05-05 02:31 | 41.46995 | 19.12310 | 38113 ft | 438 kts | 320° |
| 2026-05-05 02:31 | 41.51725 | 19.07183 | 38138 ft | 438 kts | 320° |
| 2026-05-05 02:32 | 41.56456 | 19.02044 | 38137 ft | 438 kts | 320° |
| 2026-05-05 02:32 | 41.61157 | 18.96929 | 38122 ft | 438 kts | 320° |
| 2026-05-05 02:33 | 41.65881 | 18.91778 | 38105 ft | 439 kts | 320° |
| 2026-05-05 02:33 | 41.70604 | 18.86618 | 38115 ft | 439 kts | 320° |
| 2026-05-05 02:34 | 41.75331 | 18.81444 | 38114 ft | 439 kts | 320° |
| 2026-05-05 02:34 | 41.80055 | 18.76263 | 38133 ft | 438 kts | 320° |
| 2026-05-05 02:35 | 41.84778 | 18.71073 | 38122 ft | 439 kts | 320° |
| 2026-05-05 02:35 | 41.89497 | 18.65877 | 38115 ft | 439 kts | 320° |
| 2026-05-05 02:36 | 41.94213 | 18.60673 | 38114 ft | 439 kts | 320° |
| 2026-05-05 02:36 | 41.98934 | 18.55458 | 38112 ft | 439 kts | 319° |
| 2026-05-05 02:37 | 42.03386 | 18.49863 | 38112 ft | 439 kts | 312° |
| 2026-05-05 02:37 | 42.07528 | 18.43820 | 38114 ft | 439 kts | 313° |
| 2026-05-05 02:38 | 42.11693 | 18.37825 | 38109 ft | 439 kts | 312° |
| 2026-05-05 02:38 | 42.15859 | 18.31792 | 38092 ft | 440 kts | 312° |
| 2026-05-05 02:39 | 42.19990 | 18.25783 | 38109 ft | 440 kts | 312° |
| 2026-05-05 02:39 | 42.24150 | 18.19718 | 38104 ft | 440 kts | 312° |
| 2026-05-05 02:40 | 42.28302 | 18.13651 | 38104 ft | 440 kts | 312° |
| 2026-05-05 02:40 | 42.32458 | 18.07566 | 38107 ft | 440 kts | 312° |
| 2026-05-05 02:41 | 42.36608 | 18.01477 | 38106 ft | 440 kts | 312° |
| 2026-05-05 02:41 | 42.40758 | 17.95376 | 38118 ft | 440 kts | 312° |
| 2026-05-05 02:42 | 42.44896 | 17.89279 | 38107 ft | 440 kts | 312° |
| 2026-05-05 02:42 | 42.49038 | 17.83163 | 38106 ft | 440 kts | 312° |
| 2026-05-05 02:43 | 42.53150 | 17.77080 | 38107 ft | 440 kts | 311° |
| 2026-05-05 02:43 | 42.57287 | 17.70947 | 38100 ft | 441 kts | 311° |
| 2026-05-05 02:44 | 42.61429 | 17.64792 | 38105 ft | 441 kts | 311° |
| 2026-05-05 02:44 | 42.65565 | 17.58633 | 38103 ft | 441 kts | 311° |
| 2026-05-05 02:45 | 42.69705 | 17.52456 | 38099 ft | 442 kts | 311° |
| 2026-05-05 02:45 | 42.73849 | 17.46260 | 38101 ft | 443 kts | 311° |
| 2026-05-05 02:46 | 42.77998 | 17.40042 | 38103 ft | 443 kts | 311° |
| 2026-05-05 02:46 | 42.82151 | 17.33805 | 38124 ft | 444 kts | 311° |
| 2026-05-05 02:47 | 42.86273 | 17.27602 | 38119 ft | 444 kts | 311° |
| 2026-05-05 02:47 | 42.90446 | 17.21308 | 38124 ft | 444 kts | 310° |
| 2026-05-05 02:48 | 42.94564 | 17.15084 | 38093 ft | 445 kts | 310° |
| 2026-05-05 02:48 | 42.98709 | 17.08804 | 38096 ft | 445 kts | 310° |
| 2026-05-05 02:49 | 43.02858 | 17.02506 | 38095 ft | 446 kts | 310° |
| 2026-05-05 02:49 | 43.07004 | 16.96197 | 38098 ft | 446 kts | 310° |
| 2026-05-05 02:50 | 43.11151 | 16.89874 | 38092 ft | 446 kts | 310° |
| 2026-05-05 02:50 | 43.15298 | 16.83537 | 38113 ft | 446 kts | 310° |
| 2026-05-05 02:51 | 43.19446 | 16.77185 | 38093 ft | 447 kts | 310° |
| 2026-05-05 02:51 | 43.23593 | 16.70819 | 38090 ft | 448 kts | 310° |
| 2026-05-05 02:52 | 43.27682 | 16.64553 | 38044 ft | 434 kts | 309° |
| 2026-05-05 02:52 | 43.31626 | 16.58461 | 38088 ft | 421 kts | 309° |
| 2026-05-05 02:53 | 43.35466 | 16.52522 | 38093 ft | 410 kts | 309° |
| 2026-05-05 02:53 | 43.39211 | 16.46723 | 38086 ft | 401 kts | 309° |
| 2026-05-05 02:54 | 43.42864 | 16.41057 | 38113 ft | 392 kts | 309° |
| 2026-05-05 02:54 | 43.46444 | 16.35495 | 38102 ft | 384 kts | 309° |
| 2026-05-05 02:55 | 43.49958 | 16.30030 | 38102 ft | 377 kts | 309° |
| 2026-05-05 02:55 | 43.53397 | 16.24697 | 38102 ft | 370 kts | 309° |
| 2026-05-05 02:56 | 43.56228 | 16.20314 | 38104 ft | 365 kts | 309° |
| 2026-05-05 02:56 | 43.60132 | 16.14255 | 38082 ft | 358 kts | 309° |
| 2026-05-05 02:57 | 43.62859 | 16.10015 | 38085 ft | 353 kts | 309° |
| 2026-05-05 02:57 | 43.66601 | 16.04186 | 38079 ft | 346 kts | 308° |
| 2026-05-05 02:58 | 43.69255 | 16.00043 | 38080 ft | 340 kts | 308° |
| 2026-05-05 02:58 | 43.72339 | 15.95223 | 38082 ft | 334 kts | 308° |
| 2026-05-05 02:59 | 43.75378 | 15.90464 | 38079 ft | 326 kts | 308° |
| 2026-05-05 02:59 | 43.78347 | 15.85809 | 38079 ft | 319 kts | 308° |
| 2026-05-05 03:00 | 43.81245 | 15.81257 | 38077 ft | 310 kts | 308° |
| 2026-05-05 03:00 | 43.84058 | 15.76833 | 38075 ft | 301 kts | 307° |
| 2026-05-05 03:00 | 43.85431 | 15.74671 | 38075 ft | 296 kts | 307° |
| 2026-05-05 03:01 | 43.86779 | 15.72547 | 38077 ft | 291 kts | 307° |
| 2026-05-05 03:01 | 43.88101 | 15.70463 | 38073 ft | 284 kts | 307° |
| 2026-05-05 03:01 | 43.89395 | 15.68420 | 38045 ft | 279 kts | 307° |
| 2026-05-05 03:01 | 43.90682 | 15.66407 | 37801 ft | 280 kts | 308° |
| 2026-05-05 03:02 | 43.92006 | 15.64392 | 37501 ft | 285 kts | 309° |
| 2026-05-05 03:02 | 43.93368 | 15.62423 | 37266 ft | 287 kts | 310° |
| 2026-05-05 03:02 | 43.94799 | 15.60501 | 37160 ft | 285 kts | 313° |
| 2026-05-05 03:02 | 43.96290 | 15.58687 | 37090 ft | 283 kts | 316° |
| 2026-05-05 03:03 | 43.97845 | 15.57013 | 36953 ft | 284 kts | 320° |
| 2026-05-05 03:03 | 43.99493 | 15.55484 | 36771 ft | 286 kts | 324° |
| 2026-05-05 03:03 | 44.01241 | 15.54135 | 36611 ft | 288 kts | 329° |
| 2026-05-05 03:03 | 44.03083 | 15.53012 | 36476 ft | 289 kts | 334° |
| 2026-05-05 03:04 | 44.05003 | 15.52157 | 36360 ft | 291 kts | 340° |
| 2026-05-05 03:04 | 44.07001 | 15.51603 | 36228 ft | 294 kts | 347° |
| 2026-05-05 03:04 | 44.09048 | 15.51393 | 36082 ft | 297 kts | 354° |
| 2026-05-05 03:04 | 44.11124 | 15.51565 | 35940 ft | 301 kts | 2° |
| 2026-05-05 03:05 | 44.13190 | 15.52151 | 35819 ft | 305 kts | 11° |
| 2026-05-05 03:05 | 44.15198 | 15.53177 | 35672 ft | 310 kts | 20° |
| 2026-05-05 03:05 | 44.17089 | 15.54653 | 35553 ft | 314 kts | 30° |
| 2026-05-05 03:05 | 44.18798 | 15.56571 | 35403 ft | 319 kts | 40° |
| 2026-05-05 03:06 | 44.20245 | 15.58883 | 35288 ft | 323 kts | 51° |
| 2026-05-05 03:06 | 44.21393 | 15.61591 | 35159 ft | 326 kts | 63° |
| 2026-05-05 03:06 | 44.22152 | 15.64583 | 35024 ft | 329 kts | 75° |
| 2026-05-05 03:06 | 44.22466 | 15.67755 | 34894 ft | 332 kts | 88° |
| 2026-05-05 03:07 | 44.22292 | 15.70966 | 34759 ft | 332 kts | 102° |
| 2026-05-05 03:07 | 44.21618 | 15.74033 | 34619 ft | 331 kts | 117° |
| 2026-05-05 03:07 | 44.20463 | 15.76779 | 34476 ft | 329 kts | 132° |
| 2026-05-05 03:07 | 44.18875 | 15.79036 | 34326 ft | 324 kts | 148° |
| 2026-05-05 03:08 | 44.16954 | 15.80625 | 34189 ft | 319 kts | 164° |
| 2026-05-05 03:08 | 44.14844 | 15.81407 | 34024 ft | 311 kts | 181° |
| 2026-05-05 03:08 | 44.12718 | 15.81307 | 33861 ft | 301 kts | 200° |
| 2026-05-05 03:08 | 44.10822 | 15.80355 | 33710 ft | 290 kts | 218° |
| 2026-05-05 03:09 | 44.09279 | 15.78602 | 33571 ft | 278 kts | 238° |
| 2026-05-05 03:09 | 44.08348 | 15.76342 | 33422 ft | 270 kts | 258° |
| 2026-05-05 03:09 | 44.08109 | 15.73797 | 33252 ft | 265 kts | 279° |
| 2026-05-05 03:09 | 44.08625 | 15.71370 | 33143 ft | 263 kts | 300° |
| 2026-05-05 03:10 | 44.09832 | 15.69454 | 33022 ft | 268 kts | 322° |
| 2026-05-05 03:10 | 44.11556 | 15.68391 | 32877 ft | 279 kts | 346° |
| 2026-05-05 03:10 | 44.13531 | 15.68426 | 32697 ft | 294 kts | 9° |
| 2026-05-05 03:10 | 44.15423 | 15.69655 | 32520 ft | 309 kts | 34° |
| 2026-05-05 03:11 | 44.16853 | 15.71936 | 32382 ft | 321 kts | 60° |
| 2026-05-05 03:11 | 44.17526 | 15.74927 | 32248 ft | 328 kts | 86° |
| 2026-05-05 03:11 | 44.17269 | 15.78071 | 32088 ft | 330 kts | 113° |
| 2026-05-05 03:11 | 44.16099 | 15.80781 | 31953 ft | 325 kts | 141° |
| 2026-05-05 03:12 | 44.14280 | 15.82460 | 31809 ft | 314 kts | 169° |
| 2026-05-05 03:12 | 44.12187 | 15.82800 | 31650 ft | 298 kts | 198° |
| 2026-05-05 03:12 | 44.10346 | 15.81734 | 31503 ft | 282 kts | 228° |
| 2026-05-05 03:12 | 44.09251 | 15.79599 | 31354 ft | 268 kts | 259° |
| 2026-05-05 03:13 | 44.09219 | 15.77072 | 31189 ft | 264 kts | 291° |
| 2026-05-05 03:13 | 44.10265 | 15.74996 | 31026 ft | 271 kts | 323° |
| 2026-05-05 03:13 | 44.12076 | 15.74125 | 30868 ft | 289 kts | 356° |
| 2026-05-05 03:13 | 44.14054 | 15.74888 | 30702 ft | 309 kts | 30° |
| 2026-05-05 03:14 | 44.15501 | 15.77168 | 30541 ft | 326 kts | 65° |
| 2026-05-05 03:14 | 44.15869 | 15.80279 | 30425 ft | 332 kts | 100° |
| 2026-05-05 03:14 | 44.15015 | 15.83207 | 30327 ft | 326 kts | 135° |
| 2026-05-05 03:14 | 44.13247 | 15.85001 | 30202 ft | 311 kts | 171° |
| 2026-05-05 03:15 | 44.11184 | 15.85149 | 30047 ft | 289 kts | 205° |
| 2026-05-05 03:15 | 44.09578 | 15.83769 | 29685 ft | 265 kts | 240° |
| 2026-05-05 03:15 | 44.08961 | 15.81456 | 29068 ft | 258 kts | 276° |
| 2026-05-05 03:15 | 44.09576 | 15.79147 | 28422 ft | 264 kts | 312° |
| 2026-05-05 03:16 | 44.11185 | 15.77890 | 27945 ft | 277 kts | 349° |
| 2026-05-05 03:16 | 44.13106 | 15.78297 | 27536 ft | 291 kts | 26° |
| 2026-05-05 03:16 | 44.14560 | 15.80280 | 27137 ft | 302 kts | 63° |
| 2026-05-05 03:16 | 44.14963 | 15.83127 | 26697 ft | 306 kts | 100° |
| 2026-05-05 03:17 | 44.14149 | 15.85790 | 26280 ft | 299 kts | 137° |
| 2026-05-05 03:17 | 44.12452 | 15.87268 | 25898 ft | 284 kts | 175° |
| 2026-05-05 03:17 | 44.10572 | 15.87060 | 25494 ft | 266 kts | 213° |
| 2026-05-05 03:17 | 44.09295 | 15.85370 | 25073 ft | 253 kts | 251° |
| 2026-05-05 03:18 | 44.09144 | 15.83014 | 24652 ft | 249 kts | 290° |
| 2026-05-05 03:18 | 44.10171 | 15.81113 | 24243 ft | 255 kts | 329° |
| 2026-05-05 03:18 | 44.11886 | 15.80591 | 23855 ft | 267 kts | 7° |
| 2026-05-05 03:18 | 44.13550 | 15.81753 | 23462 ft | 277 kts | 47° |
| 2026-05-05 03:19 | 44.13993 | 15.86763 | 22633 ft | 277 kts | 127° |
| 2026-05-05 03:19 | 44.12586 | 15.88454 | 22218 ft | 266 kts | 167° |
| 2026-05-05 03:19 | 44.10823 | 15.88525 | 21821 ft | 252 kts | 207° |
| 2026-05-05 03:20 | 44.09532 | 15.87037 | 21426 ft | 241 kts | 247° |
| 2026-05-05 03:20 | 44.09330 | 15.84790 | 21013 ft | 240 kts | 288° |
| 2026-05-05 03:20 | 44.10313 | 15.82946 | 20612 ft | 246 kts | 329° |
| 2026-05-05 03:20 | 44.11993 | 15.82489 | 20231 ft | 256 kts | 11° |
| 2026-05-05 03:21 | 44.13536 | 15.83708 | 19858 ft | 263 kts | 52° |
| 2026-05-05 03:21 | 44.14171 | 15.86054 | 19497 ft | 263 kts | 94° |
| 2026-05-05 03:21 | 44.13608 | 15.88353 | 19154 ft | 255 kts | 136° |
| 2026-05-05 03:21 | 44.12146 | 15.89557 | 18807 ft | 243 kts | 178° |
| 2026-05-05 03:22 | 44.10564 | 15.89084 | 18457 ft | 233 kts | 220° |
| 2026-05-05 03:22 | 44.09703 | 15.87260 | 18062 ft | 231 kts | 263° |
| 2026-05-05 03:22 | 44.10028 | 15.85115 | 17661 ft | 236 kts | 306° |
| 2026-05-05 03:22 | 44.11388 | 15.83846 | 17270 ft | 244 kts | 349° |
| 2026-05-05 03:23 | 44.13054 | 15.84201 | 16870 ft | 251 kts | 33° |
| 2026-05-05 03:23 | 44.14147 | 15.86028 | 16494 ft | 250 kts | 77° |
| 2026-05-05 03:23 | 44.14088 | 15.88357 | 16142 ft | 241 kts | 121° |
| 2026-05-05 03:23 | 44.12955 | 15.89924 | 15797 ft | 229 kts | 165° |
| 2026-05-05 03:24 | 44.11438 | 15.89906 | 15461 ft | 220 kts | 209° |
| 2026-05-05 03:24 | 44.10435 | 15.88378 | 15100 ft | 221 kts | 254° |
| 2026-05-05 03:24 | 44.10557 | 15.86273 | 14733 ft | 229 kts | 298° |
| 2026-05-05 03:24 | 44.11770 | 15.84844 | 14335 ft | 240 kts | 343° |
| 2026-05-05 03:25 | 44.13416 | 15.84981 | 13993 ft | 244 kts | 29° |
| 2026-05-05 03:25 | 44.14550 | 15.86631 | 13656 ft | 238 kts | 75° |
| 2026-05-05 03:25 | 44.14604 | 15.88646 | 13305 ft | 228 kts | 117° |
| 2026-05-05 03:25 | 44.13607 | 15.90210 | 12933 ft | 216 kts | 163° |
| 2026-05-05 03:26 | 44.12181 | 15.90214 | 12591 ft | 208 kts | 210° |
| 2026-05-05 03:26 | 44.11357 | 15.88754 | 12557 ft | 190 kts | 259° |
| 2026-05-05 03:26 | 44.11624 | 15.86969 | 12010 ft | 200 kts | 309° |
| 2026-05-05 03:26 | 44.12843 | 15.86149 | 11581 ft | 215 kts | 4° |
| 2026-05-05 03:27 | 44.14242 | 15.87010 | 11677 ft | 224 kts | 36° |
| 2026-05-05 03:27 | 44.15571 | 15.88143 | 11672 ft | 234 kts | 16° |
| 2026-05-05 03:27 | 44.17192 | 15.88288 | 11768 ft | 238 kts | 343° |
| 2026-05-05 03:27 | 44.18651 | 15.87256 | 11833 ft | 238 kts | 313° |
| 2026-05-05 03:28 | 44.19629 | 15.85411 | 11917 ft | 243 kts | 298° |
| 2026-05-05 03:28 | 44.20519 | 15.83366 | 12038 ft | 250 kts | 297° |
| 2026-05-05 03:28 | 44.21436 | 15.81262 | 12098 ft | 259 kts | 298° |
| 2026-05-05 03:28 | 44.22420 | 15.79025 | 12303 ft | 283 kts | 298° |
| 2026-05-05 03:29 | 44.23498 | 15.76592 | 12533 ft | 304 kts | 299° |
| 2026-05-05 03:29 | 44.24632 | 15.74054 | 13063 ft | 311 kts | 299° |
| 2026-05-05 03:29 | 44.25796 | 15.71454 | 13398 ft | 323 kts | 300° |
| 2026-05-05 03:29 | 44.27015 | 15.68725 | 13506 ft | 342 kts | 300° |
| 2026-05-05 03:30 | 44.28297 | 15.65847 | 13659 ft | 361 kts | 300° |
| 2026-05-05 03:30 | 44.29658 | 15.62784 | 13871 ft | 379 kts | 302° |
| 2026-05-05 03:30 | 44.31062 | 15.59635 | 14459 ft | 384 kts | 302° |
| 2026-05-05 03:30 | 44.32468 | 15.56470 | 15096 ft | 388 kts | 301° |
| 2026-05-05 03:31 | 44.33900 | 15.53244 | 15743 ft | 391 kts | 301° |
| 2026-05-05 03:31 | 44.35338 | 15.49995 | 16373 ft | 395 kts | 301° |
| 2026-05-05 03:31 | 44.36790 | 15.46712 | 16917 ft | 399 kts | 301° |
| 2026-05-05 03:31 | 44.38250 | 15.43406 | 17450 ft | 403 kts | 301° |
| 2026-05-05 03:32 | 44.39727 | 15.40057 | 18034 ft | 405 kts | 301° |
| 2026-05-05 03:32 | 44.41195 | 15.36726 | 18582 ft | 408 kts | 301° |
| 2026-05-05 03:32 | 44.42688 | 15.33334 | 19102 ft | 411 kts | 301° |
| 2026-05-05 03:32 | 44.44190 | 15.29917 | 19623 ft | 414 kts | 301° |
| 2026-05-05 03:33 | 44.45707 | 15.26463 | 20090 ft | 417 kts | 301° |
| 2026-05-05 03:33 | 44.47233 | 15.22982 | 20529 ft | 422 kts | 301° |
| 2026-05-05 03:33 | 44.48767 | 15.19479 | 21099 ft | 422 kts | 301° |
| 2026-05-05 03:33 | 44.50308 | 15.15957 | 21546 ft | 425 kts | 301° |
| 2026-05-05 03:34 | 44.51857 | 15.12410 | 22061 ft | 427 kts | 301° |
| 2026-05-05 03:34 | 44.53414 | 15.08843 | 22530 ft | 429 kts | 301° |
| 2026-05-05 03:34 | 44.54969 | 15.05275 | 23013 ft | 431 kts | 301° |
| 2026-05-05 03:34 | 44.56517 | 15.01720 | 23503 ft | 433 kts | 301° |
| 2026-05-05 03:35 | 44.58088 | 14.98107 | 23924 ft | 436 kts | 301° |
| 2026-05-05 03:35 | 44.59675 | 14.94451 | 24407 ft | 439 kts | 301° |
| 2026-05-05 03:35 | 44.61268 | 14.90778 | 24873 ft | 442 kts | 301° |
| 2026-05-05 03:35 | 44.62871 | 14.87076 | 25337 ft | 445 kts | 301° |
| 2026-05-05 03:36 | 44.64488 | 14.83338 | 25834 ft | 449 kts | 301° |
| 2026-05-05 03:36 | 44.66110 | 14.79583 | 26305 ft | 452 kts | 301° |
| 2026-05-05 03:36 | 44.67749 | 14.75784 | 26791 ft | 456 kts | 301° |
| 2026-05-05 03:36 | 44.69401 | 14.71948 | 27298 ft | 459 kts | 301° |
| 2026-05-05 03:37 | 44.71056 | 14.68102 | 27789 ft | 462 kts | 301° |
| 2026-05-05 03:37 | 44.72728 | 14.64210 | 28290 ft | 466 kts | 301° |
| 2026-05-05 03:37 | 44.74408 | 14.60295 | 28758 ft | 469 kts | 301° |
| 2026-05-05 03:37 | 44.76099 | 14.56348 | 29239 ft | 473 kts | 301° |
| 2026-05-05 03:38 | 44.77796 | 14.52380 | 29711 ft | 476 kts | 301° |
| 2026-05-05 03:38 | 44.79513 | 14.48362 | 30169 ft | 479 kts | 301° |
| 2026-05-05 03:38 | 44.81214 | 14.44375 | 30593 ft | 483 kts | 301° |
| 2026-05-05 03:38 | 44.82955 | 14.40287 | 31013 ft | 488 kts | 301° |
| 2026-05-05 03:39 | 44.84701 | 14.36183 | 31506 ft | 490 kts | 301° |
| 2026-05-05 03:39 | 44.86460 | 14.32045 | 31885 ft | 494 kts | 301° |
| 2026-05-05 03:39 | 44.88228 | 14.27876 | 32441 ft | 495 kts | 301° |
| 2026-05-05 03:39 | 44.89997 | 14.23699 | 32958 ft | 496 kts | 301° |
| 2026-05-05 03:40 | 44.91762 | 14.19526 | 33570 ft | 495 kts | 301° |
| 2026-05-05 03:40 | 44.93522 | 14.15357 | 34179 ft | 493 kts | 301° |
| 2026-05-05 03:40 | 44.95281 | 14.11187 | 34769 ft | 492 kts | 301° |
| 2026-05-05 03:40 | 44.97024 | 14.07047 | 35328 ft | 491 kts | 300° |
| 2026-05-05 03:41 | 44.98179 | 14.04300 | 35675 ft | 491 kts | 300° |
| 2026-05-05 03:41 | 44.99920 | 14.00155 | 36169 ft | 490 kts | 300° |
| 2026-05-05 03:41 | 45.02223 | 13.94663 | 36801 ft | 490 kts | 300° |
| 2026-05-05 03:41 | 45.03960 | 13.90512 | 37234 ft | 491 kts | 300° |
| 2026-05-05 03:42 | 45.05697 | 13.86357 | 37690 ft | 490 kts | 300° |
| 2026-05-05 03:42 | 45.07440 | 13.82181 | 37949 ft | 495 kts | 300° |
| 2026-05-05 03:42 | 45.10315 | 13.75280 | 37995 ft | 485 kts | 300° |
| 2026-05-05 03:43 | 45.13744 | 13.67023 | 37996 ft | 486 kts | 300° |
| 2026-05-05 03:43 | 45.17168 | 13.58758 | 37995 ft | 486 kts | 300° |
| 2026-05-05 03:44 | 45.20586 | 13.50480 | 37996 ft | 486 kts | 300° |
| 2026-05-05 03:44 | 45.23992 | 13.42209 | 37995 ft | 486 kts | 300° |
| 2026-05-05 03:45 | 45.27378 | 13.33961 | 37996 ft | 486 kts | 300° |
| 2026-05-05 03:45 | 45.30787 | 13.25665 | 37994 ft | 486 kts | 302° |
| 2026-05-05 03:46 | 45.34755 | 13.17882 | 37995 ft | 486 kts | 307° |
| 2026-05-05 03:46 | 45.38823 | 13.10175 | 37995 ft | 486 kts | 307° |
| 2026-05-05 03:47 | 45.42871 | 13.02463 | 37997 ft | 486 kts | 306° |
| 2026-05-05 03:47 | 45.46919 | 12.94725 | 37996 ft | 486 kts | 306° |
| 2026-05-05 03:48 | 45.50930 | 12.87036 | 37997 ft | 486 kts | 306° |
| 2026-05-05 03:48 | 45.54969 | 12.79273 | 37998 ft | 486 kts | 306° |
| 2026-05-05 03:49 | 45.58993 | 12.71519 | 37998 ft | 487 kts | 306° |
| 2026-05-05 03:49 | 45.63020 | 12.63736 | 37999 ft | 487 kts | 306° |
| 2026-05-05 03:50 | 45.67042 | 12.55942 | 37998 ft | 487 kts | 306° |
| 2026-05-05 03:50 | 45.71057 | 12.48141 | 37998 ft | 487 kts | 306° |
| 2026-05-05 03:51 | 45.75042 | 12.40376 | 37998 ft | 487 kts | 306° |
| 2026-05-05 03:51 | 45.79043 | 12.32557 | 37997 ft | 487 kts | 306° |
| 2026-05-05 03:52 | 45.83040 | 12.24725 | 37996 ft | 487 kts | 306° |
| 2026-05-05 03:52 | 45.87037 | 12.16872 | 37995 ft | 487 kts | 306° |
| 2026-05-05 03:53 | 45.91027 | 12.09010 | 37990 ft | 487 kts | 306° |
| 2026-05-05 03:53 | 45.95020 | 12.01121 | 37946 ft | 488 kts | 306° |
| 2026-05-05 03:54 | 45.99030 | 11.93176 | 37992 ft | 489 kts | 306° |
| 2026-05-05 03:54 | 46.02992 | 11.85305 | 37995 ft | 488 kts | 306° |
| 2026-05-05 03:55 | 46.07011 | 11.77296 | 37995 ft | 492 kts | 306° |
| 2026-05-05 03:55 | 46.11031 | 11.69269 | 37995 ft | 498 kts | 306° |
| 2026-05-05 03:56 | 46.15073 | 11.61110 | 37994 ft | 500 kts | 305° |
| 2026-05-05 03:56 | 46.19120 | 11.52900 | 37996 ft | 501 kts | 305° |
| 2026-05-05 03:57 | 46.23134 | 11.44741 | 37995 ft | 501 kts | 305° |
| 2026-05-05 03:57 | 46.27120 | 11.36619 | 37992 ft | 491 kts | 305° |
| 2026-05-05 03:58 | 46.31041 | 11.28608 | 38011 ft | 485 kts | 305° |
| 2026-05-05 03:58 | 46.34948 | 11.20601 | 37994 ft | 493 kts | 305° |
| 2026-05-05 03:59 | 46.38938 | 11.12401 | 37996 ft | 494 kts | 305° |
| 2026-05-05 03:59 | 46.42873 | 11.04294 | 37999 ft | 494 kts | 305° |
| 2026-05-05 04:00 | 46.46845 | 10.96149 | 37994 ft | 499 kts | 305° |
| 2026-05-05 04:00 | 46.50916 | 10.87787 | 38032 ft | 513 kts | 305° |
| 2026-05-05 04:01 | 46.54965 | 10.79437 | 37997 ft | 504 kts | 305° |
| 2026-05-05 04:01 | 46.58960 | 10.71170 | 37995 ft | 500 kts | 305° |
| 2026-05-05 04:02 | 46.62914 | 10.62964 | 37996 ft | 491 kts | 305° |
| 2026-05-05 04:02 | 46.66822 | 10.54828 | 37996 ft | 493 kts | 304° |
| 2026-05-05 04:03 | 46.70771 | 10.46585 | 37995 ft | 499 kts | 304° |
| 2026-05-05 04:03 | 46.74367 | 10.37827 | 37996 ft | 507 kts | 296° |
| 2026-05-05 04:04 | 46.77136 | 10.28421 | 38050 ft | 509 kts | 292° |
| 2026-05-05 04:04 | 46.79880 | 10.18950 | 37994 ft | 498 kts | 292° |
| 2026-05-05 04:05 | 46.82581 | 10.09558 | 37998 ft | 506 kts | 292° |
| 2026-05-05 04:05 | 46.85270 | 10.00131 | 37993 ft | 502 kts | 292° |
| 2026-05-05 04:06 | 46.87931 | 9.90761 | 37998 ft | 500 kts | 292° |
| 2026-05-05 04:06 | 46.90572 | 9.81426 | 38004 ft | 493 kts | 292° |
| 2026-05-05 04:07 | 46.93167 | 9.72213 | 37955 ft | 489 kts | 292° |
| 2026-05-05 04:07 | 46.95741 | 9.63047 | 38009 ft | 488 kts | 292° |
| 2026-05-05 04:08 | 46.98330 | 9.53789 | 37996 ft | 490 kts | 292° |
| 2026-05-05 04:08 | 47.00896 | 9.44577 | 37996 ft | 495 kts | 292° |
| 2026-05-05 04:09 | 47.03490 | 9.35230 | 37993 ft | 496 kts | 292° |
| 2026-05-05 04:09 | 47.06094 | 9.25810 | 37993 ft | 497 kts | 292° |
| 2026-05-05 04:10 | 47.08697 | 9.16358 | 38028 ft | 503 kts | 292° |
| 2026-05-05 04:10 | 47.11322 | 9.06786 | 37989 ft | 500 kts | 291° |
| 2026-05-05 04:11 | 47.12592 | 9.02139 | 37995 ft | 489 kts | 291° |
| 2026-05-05 04:11 | 47.13869 | 8.97462 | 37999 ft | 495 kts | 291° |
| 2026-05-05 04:11 | 47.16402 | 8.88133 | 37995 ft | 492 kts | 291° |
| 2026-05-05 04:12 | 47.18786 | 8.78770 | 37996 ft | 490 kts | 290° |
| 2026-05-05 04:12 | 47.21146 | 8.69400 | 37995 ft | 489 kts | 290° |
| 2026-05-05 04:13 | 47.23522 | 8.59996 | 37995 ft | 490 kts | 290° |
| 2026-05-05 04:13 | 47.25894 | 8.50594 | 38001 ft | 491 kts | 290° |
| 2026-05-05 04:14 | 47.28273 | 8.41154 | 38014 ft | 492 kts | 290° |
| 2026-05-05 04:14 | 47.30653 | 8.31684 | 38020 ft | 492 kts | 290° |
| 2026-05-05 04:15 | 47.33008 | 8.22229 | 38012 ft | 492 kts | 290° |
| 2026-05-05 04:15 | 47.35343 | 8.12809 | 38014 ft | 492 kts | 290° |
| 2026-05-05 04:16 | 47.37685 | 8.03324 | 38014 ft | 491 kts | 290° |
| 2026-05-05 04:16 | 47.40016 | 7.93847 | 38005 ft | 491 kts | 290° |
| 2026-05-05 04:17 | 47.42344 | 7.84342 | 38007 ft | 491 kts | 290° |
| 2026-05-05 04:17 | 47.44657 | 7.74856 | 38010 ft | 491 kts | 290° |
| 2026-05-05 04:18 | 47.46872 | 7.65314 | 37993 ft | 491 kts | 285° |
| 2026-05-05 04:18 | 47.48495 | 7.55589 | 38009 ft | 490 kts | 284° |
| 2026-05-05 04:19 | 47.50141 | 7.45808 | 38006 ft | 490 kts | 284° |
| 2026-05-05 04:19 | 47.51774 | 7.36017 | 38001 ft | 490 kts | 284° |
| 2026-05-05 04:20 | 47.53390 | 7.26232 | 37999 ft | 489 kts | 283° |
| 2026-05-05 04:20 | 47.54999 | 7.16430 | 37998 ft | 489 kts | 283° |
| 2026-05-05 04:21 | 47.56597 | 7.06633 | 37999 ft | 489 kts | 283° |
| 2026-05-05 04:21 | 47.58185 | 6.96852 | 37998 ft | 489 kts | 283° |
| 2026-05-05 04:22 | 47.59766 | 6.87046 | 37997 ft | 489 kts | 283° |
| 2026-05-05 04:22 | 47.61338 | 6.77246 | 37993 ft | 489 kts | 283° |
| 2026-05-05 04:23 | 47.62890 | 6.67507 | 37990 ft | 489 kts | 283° |
| 2026-05-05 04:23 | 47.64444 | 6.57702 | 37996 ft | 488 kts | 283° |
| 2026-05-05 04:24 | 47.65990 | 6.47886 | 37998 ft | 488 kts | 283° |
| 2026-05-05 04:25 | 47.68291 | 6.33165 | 37996 ft | 488 kts | 283° |
| 2026-05-05 04:25 | 47.70132 | 6.23485 | 37996 ft | 488 kts | 288° |
| 2026-05-05 04:26 | 47.72176 | 6.13948 | 37993 ft | 488 kts | 287° |
| 2026-05-05 04:26 | 47.74216 | 6.04327 | 37997 ft | 488 kts | 287° |
| 2026-05-05 04:27 | 47.76241 | 5.94712 | 37995 ft | 488 kts | 287° |
| 2026-05-05 04:27 | 47.77929 | 5.86668 | 37993 ft | 488 kts | 287° |
| 2026-05-05 04:28 | 47.79931 | 5.77083 | 37995 ft | 488 kts | 287° |
| 2026-05-05 04:28 | 47.81935 | 5.67440 | 37994 ft | 488 kts | 287° |
| 2026-05-05 04:29 | 47.83932 | 5.57791 | 37994 ft | 488 kts | 287° |
| 2026-05-05 04:29 | 47.85919 | 5.48136 | 37992 ft | 488 kts | 287° |
| 2026-05-05 04:30 | 47.87901 | 5.38465 | 37990 ft | 488 kts | 287° |
| 2026-05-05 04:30 | 47.90165 | 5.28935 | 37991 ft | 488 kts | 295° |
| 2026-05-05 04:31 | 47.93669 | 5.20280 | 37991 ft | 488 kts | 307° |
| 2026-05-05 04:31 | 47.98144 | 5.12658 | 37989 ft | 488 kts | 312° |
| 2026-05-05 04:32 | 48.02699 | 5.05124 | 37992 ft | 488 kts | 312° |
| 2026-05-05 04:32 | 48.07222 | 4.97620 | 37997 ft | 488 kts | 312° |
| 2026-05-05 04:33 | 48.11770 | 4.90065 | 37997 ft | 489 kts | 312° |
| 2026-05-05 04:33 | 48.16315 | 4.82496 | 37999 ft | 488 kts | 311° |
| 2026-05-05 04:34 | 48.20845 | 4.74932 | 38001 ft | 488 kts | 311° |
| 2026-05-05 04:34 | 48.25374 | 4.67346 | 38002 ft | 488 kts | 311° |
| 2026-05-05 04:35 | 48.29906 | 4.59733 | 38001 ft | 488 kts | 311° |
| 2026-05-05 04:35 | 48.34427 | 4.52116 | 38002 ft | 488 kts | 311° |
| 2026-05-05 04:36 | 48.38943 | 4.44487 | 38002 ft | 488 kts | 311° |
| 2026-05-05 04:36 | 48.43447 | 4.36854 | 38002 ft | 488 kts | 311° |
| 2026-05-05 04:37 | 48.47957 | 4.29190 | 38000 ft | 488 kts | 311° |
| 2026-05-05 04:37 | 48.52431 | 4.21565 | 38000 ft | 488 kts | 311° |
| 2026-05-05 04:38 | 48.56920 | 4.13894 | 38000 ft | 488 kts | 311° |
| 2026-05-05 04:38 | 48.61404 | 4.06206 | 37998 ft | 488 kts | 311° |
| 2026-05-05 04:39 | 48.65886 | 3.98500 | 37997 ft | 487 kts | 311° |
| 2026-05-05 04:39 | 48.70374 | 3.90794 | 37996 ft | 487 kts | 313° |
| 2026-05-05 04:40 | 48.75429 | 3.83956 | 37995 ft | 488 kts | 323° |
| 2026-05-05 04:40 | 48.80911 | 3.77993 | 37994 ft | 487 kts | 324° |
| 2026-05-05 04:41 | 48.86403 | 3.71944 | 37991 ft | 488 kts | 324° |
| 2026-05-05 04:41 | 48.91901 | 3.65897 | 37991 ft | 488 kts | 324° |
| 2026-05-05 04:42 | 48.97396 | 3.59850 | 37994 ft | 488 kts | 324° |
| 2026-05-05 04:42 | 49.02882 | 3.53796 | 37999 ft | 488 kts | 324° |
| 2026-05-05 04:43 | 49.08372 | 3.47722 | 37998 ft | 488 kts | 324° |
| 2026-05-05 04:43 | 49.13863 | 3.41629 | 37996 ft | 488 kts | 323° |
| 2026-05-05 04:44 | 49.19321 | 3.35556 | 37998 ft | 488 kts | 323° |
| 2026-05-05 04:44 | 49.24798 | 3.29444 | 37996 ft | 488 kts | 323° |
| 2026-05-05 04:45 | 49.30282 | 3.23308 | 37996 ft | 488 kts | 323° |
| 2026-05-05 04:45 | 49.35768 | 3.17153 | 37999 ft | 488 kts | 323° |
| 2026-05-05 04:46 | 49.41240 | 3.10995 | 38001 ft | 488 kts | 323° |
| 2026-05-05 04:46 | 49.46713 | 3.04819 | 37996 ft | 488 kts | 323° |
| 2026-05-05 04:47 | 49.52179 | 2.98634 | 38000 ft | 488 kts | 323° |
| 2026-05-05 04:47 | 49.57647 | 2.92428 | 37999 ft | 487 kts | 323° |
| 2026-05-05 04:48 | 49.63108 | 2.86212 | 37997 ft | 487 kts | 323° |
| 2026-05-05 04:48 | 49.68513 | 2.80043 | 37997 ft | 487 kts | 323° |
| 2026-05-05 04:49 | 49.73963 | 2.73806 | 37996 ft | 487 kts | 323° |
| 2026-05-05 04:49 | 49.79423 | 2.67563 | 37996 ft | 487 kts | 324° |
| 2026-05-05 04:50 | 49.84936 | 2.61470 | 37996 ft | 487 kts | 324° |
| 2026-05-05 04:50 | 49.90465 | 2.55357 | 37998 ft | 487 kts | 324° |
| 2026-05-05 04:51 | 49.95952 | 2.49246 | 37994 ft | 487 kts | 324° |
| 2026-05-05 04:51 | 50.01453 | 2.43095 | 37995 ft | 487 kts | 324° |
| 2026-05-05 04:52 | 50.06921 | 2.36963 | 37994 ft | 487 kts | 324° |
| 2026-05-05 04:52 | 50.12428 | 2.30770 | 37994 ft | 487 kts | 324° |
| 2026-05-05 04:53 | 50.17905 | 2.24593 | 37998 ft | 487 kts | 324° |
| 2026-05-05 04:53 | 50.23396 | 2.18383 | 37995 ft | 487 kts | 324° |
| 2026-05-05 04:54 | 50.28894 | 2.12146 | 37994 ft | 487 kts | 324° |
| 2026-05-05 04:54 | 50.34381 | 2.05903 | 37995 ft | 487 kts | 323° |
| 2026-05-05 04:55 | 50.39646 | 1.99342 | 37999 ft | 487 kts | 318° |
| 2026-05-05 04:55 | 50.44765 | 1.92360 | 37996 ft | 487 kts | 319° |
| 2026-05-05 04:56 | 50.49887 | 1.85403 | 37997 ft | 487 kts | 319° |
| 2026-05-05 04:56 | 50.55004 | 1.78407 | 37996 ft | 487 kts | 319° |
| 2026-05-05 04:57 | 50.60112 | 1.71392 | 37994 ft | 487 kts | 319° |
| 2026-05-05 04:57 | 50.65220 | 1.64356 | 37999 ft | 487 kts | 319° |
| 2026-05-05 04:58 | 50.70321 | 1.57305 | 37997 ft | 487 kts | 319° |
| 2026-05-05 04:58 | 50.75375 | 1.50293 | 38000 ft | 487 kts | 318° |
| 2026-05-05 04:59 | 50.80454 | 1.43228 | 37999 ft | 487 kts | 318° |
| 2026-05-05 04:59 | 50.85537 | 1.36143 | 37999 ft | 487 kts | 318° |
| 2026-05-05 05:00 | 50.90607 | 1.29056 | 37999 ft | 487 kts | 318° |
| 2026-05-05 05:00 | 50.95673 | 1.21951 | 37998 ft | 487 kts | 318° |
| 2026-05-05 05:01 | 51.00748 | 1.14814 | 37998 ft | 487 kts | 318° |
| 2026-05-05 05:01 | 51.05810 | 1.07670 | 37997 ft | 487 kts | 318° |
| 2026-05-05 05:02 | 51.10723 | 1.00347 | 37994 ft | 487 kts | 315° |
| 2026-05-05 05:02 | 51.15523 | 0.92765 | 37995 ft | 487 kts | 315° |
| 2026-05-05 05:03 | 51.20357 | 0.85192 | 37993 ft | 487 kts | 315° |
| 2026-05-05 05:03 | 51.25196 | 0.77634 | 37990 ft | 487 kts | 315° |
| 2026-05-05 05:04 | 51.30039 | 0.70053 | 37994 ft | 487 kts | 315° |
| 2026-05-05 05:04 | 51.34873 | 0.62462 | 37996 ft | 487 kts | 315° |
| 2026-05-05 05:05 | 51.39676 | 0.54896 | 37998 ft | 487 kts | 315° |
| 2026-05-05 05:05 | 51.44498 | 0.47276 | 37998 ft | 487 kts | 315° |
| 2026-05-05 05:06 | 51.49316 | 0.39637 | 37999 ft | 487 kts | 315° |
| 2026-05-05 05:06 | 51.54122 | 0.31993 | 37999 ft | 487 kts | 315° |
| 2026-05-05 05:07 | 51.58933 | 0.24319 | 37996 ft | 487 kts | 315° |
| 2026-05-05 05:07 | 51.63728 | 0.16646 | 37996 ft | 487 kts | 315° |
| 2026-05-05 05:08 | 51.68474 | 0.08946 | 37996 ft | 487 kts | 314° |
| 2026-05-05 05:08 | 51.73212 | 0.01131 | 37996 ft | 487 kts | 314° |
| 2026-05-05 05:09 | 51.77944 | -0.06682 | 37995 ft | 487 kts | 314° |
| 2026-05-05 05:09 | 51.82683 | -0.14517 | 37995 ft | 487 kts | 314° |
| 2026-05-05 05:10 | 51.87409 | -0.22357 | 37993 ft | 487 kts | 314° |
| 2026-05-05 05:10 | 51.92141 | -0.30230 | 37992 ft | 487 kts | 314° |
| 2026-05-05 05:10 | 51.94501 | -0.34168 | 37858 ft | 483 kts | 314° |
| 2026-05-05 05:11 | 51.96046 | -0.36750 | 37697 ft | 480 kts | 314° |
| 2026-05-05 05:11 | 51.98368 | -0.40633 | 38444 ft | 478 kts | 313° |
| 2026-05-05 05:11 | 52.00683 | -0.44512 | 38209 ft | 476 kts | 313° |
| 2026-05-05 05:11 | 52.03728 | -0.49626 | 37339 ft | 477 kts | 313° |
| 2026-05-05 05:12 | 52.05288 | -0.52248 | 36752 ft | 478 kts | 313° |
| 2026-05-05 05:12 | 52.08360 | -0.57423 | 35587 ft | 482 kts | 313° |
| 2026-05-05 05:12 | 52.10695 | -0.61361 | 34621 ft | 486 kts | 314° |
| 2026-05-05 05:12 | 52.12285 | -0.64046 | 33943 ft | 489 kts | 314° |
| 2026-05-05 05:13 | 52.14657 | -0.68054 | 32754 ft | 493 kts | 313° |
| 2026-05-05 05:13 | 52.17031 | -0.72071 | 31933 ft | 489 kts | 313° |
| 2026-05-05 05:13 | 52.19375 | -0.76046 | 31240 ft | 483 kts | 312° |
| 2026-05-05 05:13 | 52.21693 | -0.79983 | 30520 ft | 478 kts | 312° |
| 2026-05-05 05:14 | 52.24025 | -0.83773 | 29960 ft | 470 kts | 316° |
| 2026-05-05 05:14 | 52.26569 | -0.86966 | 29366 ft | 465 kts | 324° |
| 2026-05-05 05:14 | 52.29349 | -0.89734 | 28765 ft | 458 kts | 328° |
| 2026-05-05 05:14 | 52.32016 | -0.92369 | 28191 ft | 451 kts | 327° |
| 2026-05-05 05:15 | 52.34676 | -0.95034 | 27609 ft | 444 kts | 327° |
| 2026-05-05 05:15 | 52.37297 | -0.97666 | 27023 ft | 438 kts | 327° |
| 2026-05-05 05:15 | 52.39878 | -1.00257 | 26461 ft | 433 kts | 327° |
| 2026-05-05 05:15 | 52.42440 | -1.02826 | 25897 ft | 428 kts | 327° |
| 2026-05-05 05:16 | 52.44966 | -1.05358 | 25339 ft | 424 kts | 327° |
| 2026-05-05 05:16 | 52.47470 | -1.07870 | 24788 ft | 419 kts | 327° |
| 2026-05-05 05:16 | 52.49952 | -1.10364 | 24232 ft | 416 kts | 327° |
| 2026-05-05 05:16 | 52.52374 | -1.12799 | 23698 ft | 412 kts | 326° |
| 2026-05-05 05:17 | 52.54811 | -1.15254 | 23083 ft | 408 kts | 326° |
| 2026-05-05 05:17 | 52.57244 | -1.17707 | 22527 ft | 403 kts | 326° |
| 2026-05-05 05:17 | 52.59605 | -1.20089 | 22012 ft | 397 kts | 326° |
| 2026-05-05 05:17 | 52.61951 | -1.22459 | 21458 ft | 393 kts | 326° |
| 2026-05-05 05:18 | 52.64235 | -1.24770 | 20935 ft | 389 kts | 326° |
| 2026-05-05 05:18 | 52.66528 | -1.27093 | 20388 ft | 385 kts | 326° |
| 2026-05-05 05:18 | 52.68802 | -1.29399 | 19872 ft | 382 kts | 326° |
| 2026-05-05 05:18 | 52.71057 | -1.31689 | 19316 ft | 379 kts | 326° |
| 2026-05-05 05:19 | 52.73278 | -1.33949 | 18803 ft | 376 kts | 326° |
| 2026-05-05 05:19 | 52.75496 | -1.36211 | 18273 ft | 374 kts | 326° |
| 2026-05-05 05:19 | 52.77700 | -1.38458 | 17708 ft | 370 kts | 325° |
| 2026-05-05 05:19 | 52.79869 | -1.40674 | 17186 ft | 364 kts | 325° |
| 2026-05-05 05:20 | 52.82000 | -1.42853 | 16695 ft | 360 kts | 325° |
| 2026-05-05 05:20 | 52.84112 | -1.45016 | 16171 ft | 355 kts | 326° |
| 2026-05-05 05:20 | 52.86200 | -1.47157 | 15668 ft | 351 kts | 326° |
| 2026-05-05 05:20 | 52.88266 | -1.49277 | 15182 ft | 347 kts | 326° |
| 2026-05-05 05:21 | 52.90308 | -1.51376 | 14685 ft | 344 kts | 326° |
| 2026-05-05 05:21 | 52.92332 | -1.53458 | 14203 ft | 341 kts | 326° |
| 2026-05-05 05:21 | 52.94339 | -1.55525 | 13705 ft | 338 kts | 326° |
| 2026-05-05 05:21 | 52.96310 | -1.57557 | 13212 ft | 334 kts | 326° |
| 2026-05-05 05:22 | 52.98271 | -1.59581 | 12744 ft | 329 kts | 326° |
| 2026-05-05 05:22 | 53.00205 | -1.61577 | 12280 ft | 325 kts | 326° |
| 2026-05-05 05:22 | 53.02113 | -1.63550 | 11832 ft | 322 kts | 326° |
| 2026-05-05 05:22 | 53.03994 | -1.65516 | 11388 ft | 318 kts | 324° |
| 2026-05-05 05:23 | 53.05715 | -1.67783 | 11012 ft | 311 kts | 315° |
| 2026-05-05 05:23 | 53.06972 | -1.69967 | 10898 ft | 298 kts | 309° |
| 2026-05-05 05:23 | 53.08274 | -1.72551 | 10664 ft | 285 kts | 309° |
| 2026-05-05 05:23 | 53.09598 | -1.75112 | 10492 ft | 310 kts | 309° |
| 2026-05-05 05:24 | 53.11065 | -1.77937 | 10253 ft | 334 kts | 310° |
| 2026-05-05 05:24 | 53.12597 | -1.80897 | 10011 ft | 338 kts | 310° |
| 2026-05-05 05:24 | 53.14121 | -1.83848 | 9717 ft | 334 kts | 309° |
| 2026-05-05 05:24 | 53.15630 | -1.86779 | 9223 ft | 330 kts | 309° |
| 2026-05-05 05:25 | 53.17123 | -1.89687 | 8576 ft | 329 kts | 309° |
| 2026-05-05 05:25 | 53.18604 | -1.92576 | 8167 ft | 327 kts | 309° |
| 2026-05-05 05:25 | 53.20057 | -1.95414 | 7789 ft | 319 kts | 309° |
| 2026-05-05 05:25 | 53.21475 | -1.98187 | 7414 ft | 311 kts | 309° |
| 2026-05-05 05:26 | 53.22877 | -2.00872 | 7039 ft | 303 kts | 315° |
| 2026-05-05 05:26 | 53.24634 | -2.02741 | 6675 ft | 300 kts | 339° |
| 2026-05-05 05:26 | 53.26680 | -2.03208 | 6311 ft | 297 kts | 0° |
| 2026-05-05 05:26 | 53.28720 | -2.03095 | 5921 ft | 292 kts | 0° |
| 2026-05-05 05:27 | 53.30732 | -2.02990 | 5520 ft | 287 kts | 1° |
| 2026-05-05 05:27 | 53.32661 | -2.02277 | 5149 ft | 286 kts | 25° |
| 2026-05-05 05:27 | 53.35321 | -1.97766 | 4983 ft | 261 kts | 51° |
| 2026-05-05 05:28 | 53.36395 | -1.95463 | 4846 ft | 248 kts | 51° |
| 2026-05-05 05:28 | 53.37445 | -1.93240 | 4677 ft | 238 kts | 51° |
| 2026-05-05 05:28 | 53.38490 | -1.91185 | 4525 ft | 227 kts | 37° |
| 2026-05-05 05:28 | 53.39871 | -1.90197 | 4434 ft | 213 kts | 2° |
| 2026-05-05 05:29 | 53.41235 | -1.90643 | 4347 ft | 188 kts | 329° |
| 2026-05-05 05:29 | 53.42227 | -1.91865 | 4149 ft | 168 kts | 321° |
| 2026-05-05 05:29 | 53.43154 | -1.93088 | 3935 ft | 174 kts | 321° |
| 2026-05-05 05:29 | 53.44087 | -1.94332 | 3634 ft | 171 kts | 321° |
| 2026-05-05 05:30 | 53.45019 | -1.95593 | 3249 ft | 173 kts | 321° |
| 2026-05-05 05:30 | 53.45863 | -1.97034 | 3105 ft | 176 kts | 298° |
| 2026-05-05 05:30 | 53.46286 | -1.98975 | 3066 ft | 178 kts | 290° |
| 2026-05-05 05:30 | 53.46600 | -2.00967 | 3004 ft | 179 kts | 274° |
| 2026-05-05 05:31 | 53.46391 | -2.03035 | 2991 ft | 179 kts | 259° |
| 2026-05-05 05:31 | 53.46034 | -2.04925 | 2989 ft | 159 kts | 249° |
| 2026-05-05 05:31 | 53.45511 | -2.06458 | 2982 ft | 147 kts | 241° |
| 2026-05-05 05:31 | 53.44909 | -2.07830 | 2993 ft | 145 kts | 238° |
| 2026-05-05 05:32 | 53.44273 | -2.09150 | 2873 ft | 145 kts | 236° |
| 2026-05-05 05:32 | 53.43640 | -2.10464 | 2683 ft | 144 kts | 237° |
| 2026-05-05 05:32 | 53.43014 | -2.11759 | 2504 ft | 144 kts | 237° |
| 2026-05-05 05:32 | 53.42386 | -2.13054 | 2299 ft | 143 kts | 236° |
| 2026-05-05 05:33 | 53.41766 | -2.14336 | 2104 ft | 142 kts | 236° |
| 2026-05-05 05:33 | 53.41151 | -2.15605 | 1918 ft | 141 kts | 236° |
| 2026-05-05 05:33 | 53.40534 | -2.16878 | 1724 ft | 140 kts | 236° |
| 2026-05-05 05:33 | 53.39921 | -2.18140 | 1521 ft | 139 kts | 235° |
| 2026-05-05 05:34 | 53.39313 | -2.19397 | 1330 ft | 139 kts | 235° |
| 2026-05-05 05:34 | 53.38705 | -2.20649 | 1123 ft | 138 kts | 234° |
| 2026-05-05 05:34 | 53.38104 | -2.21886 | 928 ft | 137 kts | 232° |
| 2026-05-05 05:34 | 53.37509 | -2.23116 | 736 ft | 136 kts | 232° |
| 2026-05-05 05:35 | 53.36916 | -2.24339 | 557 ft | 135 kts | 231° |
| 2026-05-05 05:35 | 53.36324 | -2.25549 | 376 ft | 134 kts | 231° |
| 2026-05-05 05:35 | 53.35742 | -2.26727 | 278 ft | 120 kts | 234° |
| 2026-05-05 05:35 | 53.35331 | -2.27600 | 247 ft | 65 kts | 226° |
| 2026-05-05 05:36 | 53.35130 | -2.28004 | 238 ft | 37 kts | 232° |
| 2026-05-05 05:36 | 53.34992 | -2.28325 | 236 ft | 32 kts | 244° |
| 2026-05-05 05:36 | 53.34945 | -2.28635 | 234 ft | 21 kts | 263° |
| 2026-05-05 05:36 | 53.35003 | -2.28745 | 232 ft | 13 kts | 18° |
| 2026-05-05 05:37 | 53.35078 | -2.28621 | 239 ft | 20 kts | 50° |
| 2026-05-05 05:37 | 53.35143 | -2.28486 | 232 ft | 0 kts | 52° |